M I D A S
Marine Information and Data Acquisition System
Tripno 861 of the Zeeleeuw from 2005-03-11 07:52:16 to 2005-03-11 13:55:14
Back to CruiseResearch ActivitiesStationsMapUnderway DataData graphs

EquipmentUnitsComment
TimeDGPSUTC
LatitudeDGPSDM.mWGS84
LongitudeDGPSDM.mWGS84
TemperatureSBE03/SBE38deg celciusITS90
ConductivitySBE21S/mITS90
SalinitySBE21 Practical Salinity Units
ChlorophylAChelsea fluorimeterg/lCalibrated in Aceton
Missing or incorrect values are displayed as -999
Sea surface data collected by the RV Zeeleeuw from 2005-03-11 07:53:12 to 2005-03-11 14:07:33
                                                                                    Next 1000 lines
Time Latitude Longitude Temperature Conductivity Salinity ChlorophylA
2005-03-11 07:53:20 51°13.592 2°56.104 13.1012 4.047065 29.306615 -0.848668
2005-03-11 07:53:27 51°13.591 2°56.106 13.1164 4.047065 29.306615 -0.882377
2005-03-11 07:53:32 51°13.589 2°56.109 13.0933 4.047065 29.306615 -0.882377
2005-03-11 07:53:36 51°13.588 2°56.113 13.0688 4.047065 29.306118 -0.848668
2005-03-11 07:53:42 51°13.586 2°56.117 13.0827 4.047171 29.306471 -0.814958
2005-03-11 07:53:46 51°13.583 2°56.122 13.0807 4.047276 29.306824 -0.882377
2005-03-11 07:53:51 51°13.58 2°56.128 12.9734 4.04717 29.305477 -0.882377
2005-03-11 07:53:56 51°13.577 2°56.135 12.9241 4.04717 29.305477 -0.882377
2005-03-11 07:54:01 51°13.574 2°56.141 12.84 4.04717 29.305477 -0.848668
2005-03-11 07:54:06 51°13.57 2°56.148 12.7554 4.047171 29.305974 -0.848668
2005-03-11 07:54:11 51°13.567 2°56.153 12.7516 4.047276 29.306824 -0.848668
2005-03-11 07:54:16 51°13.564 2°56.159 12.7386 4.047276 29.306824 -0.848668
2005-03-11 07:54:20 51°13.561 2°56.164 12.848 4.047276 29.306824 -0.882377
2005-03-11 07:54:26 51°13.557 2°56.17 12.7903 4.047276 29.306824 -0.882377
2005-03-11 07:54:31 51°13.553 2°56.175 12.7728 4.047381 29.307177 -0.882377
2005-03-11 07:54:37 51°13.548 2°56.181 12.6426 4.047276 29.306327 -0.848668
2005-03-11 07:54:41 51°13.544 2°56.184 12.6741 4.047276 29.30583 -0.848668
2005-03-11 07:54:46 51°13.54 2°56.187 12.6349 4.047381 29.305686 -0.848668
2005-03-11 07:54:51 51°13.536 2°56.19 12.6249 4.047381 29.307177 -0.848668
2005-03-11 07:54:56 51°13.533 2°56.191 12.7022 4.047381 29.307177 -0.848668
2005-03-11 07:55:02 51°13.531 2°56.192 12.8625 4.047276 29.306824 -0.848668
2005-03-11 07:55:06 51°13.529 2°56.193 12.9522 4.047381 29.308171 -0.848668
2005-03-11 07:55:11 51°13.528 2°56.193 12.8726 4.047381 29.307674 -0.848668
2005-03-11 07:55:16 51°13.528 2°56.193 12.7302 4.047381 29.308171 -0.848668
2005-03-11 07:55:21 51°13.529 2°56.193 12.6864 4.047381 29.308668 -0.848668
2005-03-11 07:55:26 51°13.53 2°56.193 12.8445 4.047487 29.310015 -0.848668
2005-03-11 07:55:30 51°13.531 2°56.194 8.7956 4.047487 29.310015 -0.848668
2005-03-11 07:55:36 51°13.534 2°56.195 7.2049 4.047381 29.309165 -0.882377
2005-03-11 07:55:42 51°13.536 2°56.195 6.1566 4.054132 29.554162 -0.444155
2005-03-11 07:55:46 51°13.538 2°56.195 5.2713 3.985922 28.790838 -0.477864
2005-03-11 07:55:52 51°13.539 2°56.195 5.0054 3.538668 25.225144 3.365007
2005-03-11 07:55:56 51°13.539 2°56.195 4.8296 3.485396 26.701808 3.466136
2005-03-11 07:56:01 51°13.539 2°56.195 4.7932 3.485396 26.701808 3.466136
2005-03-11 07:56:06 51°13.538 2°56.194 4.7343 2.70006 22.299276 3.80323
2005-03-11 07:56:12 51°13.536 2°56.193 4.5895 3.117701 28.18997 3.76952
2005-03-11 07:56:16 51°13.534 2°56.192 4.5539 2.219051 20.360276 5.522409
2005-03-11 07:56:22 51°13.533 2°56.191 4.665 1.819422 17.046066 5.724665
2005-03-11 07:56:26 51°13.533 2°56.191 4.5543 1.819422 17.046066 5.724665
2005-03-11 07:56:32 51°13.534 2°56.192 4.6259 1.677855 15.899453 6.398853
2005-03-11 07:56:37 51°13.535 2°56.193 4.5444 1.639143 15.680499 5.758375
2005-03-11 07:56:41 51°13.536 2°56.195 4.4724 1.609247 15.467379 5.45499
2005-03-11 07:56:46 51°13.538 2°56.197 4.3711 1.580718 15.257776 5.151606
2005-03-11 07:56:52 51°13.54 2°56.199 4.3521 1.559637 15.075201 5.016768
2005-03-11 07:56:57 51°13.542 2°56.201 4.3053 1.553134 15.025496 4.949349
2005-03-11 07:57:02 51°13.543 2°56.202 4.3263 1.553134 15.025496 4.949349
2005-03-11 07:57:06 51°13.543 2°56.202 4.3398 1.549359 15.012642 4.814512
2005-03-11 07:57:12 51°13.542 2°56.2 4.2785 1.536565 14.91029 4.814512
2005-03-11 07:57:17 51°13.54 2°56.197 4.2433 1.54118 14.998415 4.780802
2005-03-11 07:57:22 51°13.539 2°56.193 4.2804 1.600334 15.665794 4.645965
2005-03-11 07:57:26 51°13.538 2°56.191 4.3159 1.600334 15.665794 4.645965
2005-03-11 07:57:32 51°13.537 2°56.189 4.2258 1.637889 16.095376 4.409999
2005-03-11 07:57:36 51°13.536 2°56.189 4.2375 1.698427 16.762544 4.376289
2005-03-11 07:57:42 51°13.536 2°56.189 4.2677 1.753835 17.362726 4.207742
2005-03-11 07:57:46 51°13.537 2°56.19 4.2856 1.794347 17.822343 3.971777
2005-03-11 07:57:50 51°13.537 2°56.192 4.2324 1.818909 18.107357 3.80323
2005-03-11 07:57:56 51°13.538 2°56.196 4.1667 1.799806 17.899468 3.836939
2005-03-11 07:58:02 51°13.539 2°56.201 4.1955 1.799806 17.899468 3.836939
2005-03-11 07:58:06 51°13.54 2°56.204 4.1403 1.77556 17.648487 3.836939
2005-03-11 07:58:12 51°13.54 2°56.206 4.169 1.747749 17.359966 3.80323
2005-03-11 07:58:17 51°13.541 2°56.206 4.1559 1.728229 17.147354 3.836939
2005-03-11 07:58:22 51°13.54 2°56.204 4.162 1.716476 17.026029 3.80323
2005-03-11 07:58:26 51°13.54 2°56.201 4.1398 1.716476 17.026029 3.80323
2005-03-11 07:58:32 51°13.54 2°56.196 4.1329 1.712804 17.003217 3.80323
2005-03-11 07:58:36 51°13.54 2°56.192 4.19 1.749848 17.424978 3.76952
2005-03-11 07:58:42 51°13.54 2°56.186 4.218 1.77766 17.737437 3.702101
2005-03-11 07:58:46 51°13.541 2°56.18 4.2247 1.798862 17.976461 3.668392
2005-03-11 07:58:52 51°13.543 2°56.172 4.2432 1.807994 18.073882 3.600973
2005-03-11 07:58:56 51°13.545 2°56.166 4.1621 1.813977 18.150187 3.600973
2005-03-11 07:59:01 51°13.548 2°56.16 4.1389 1.813977 18.150187 3.600973
2005-03-11 07:59:06 51°13.552 2°56.151 4.1306 1.81975 18.215526 3.567264
2005-03-11 07:59:10 51°13.554 2°56.146 4.176 1.779549 17.769849 3.668392
2005-03-11 07:59:16 51°13.559 2°56.135 4.187 1.709341 16.993552 3.76952
2005-03-11 07:59:21 51°13.563 2°56.126 4.1931 1.652998 16.371101 3.80323
2005-03-11 07:59:26 51°13.567 2°56.117 4.1652 1.652998 16.371101 3.80323
2005-03-11 07:59:31 51°13.572 2°56.106 4.1845 1.663594 16.501512 3.904358
2005-03-11 07:59:36 51°13.576 2°56.097 4.2314 1.686152 16.762815 3.80323
2005-03-11 07:59:40 51°13.58 2°56.088 4.2471 1.75562 17.525984 3.904358
2005-03-11 07:59:46 51°13.586 2°56.075 4.2191 1.741767 17.370009 3.971777
2005-03-11 07:59:51 51°13.59 2°56.064 4.2339 1.728545 17.2234 4.140324
2005-03-11 07:59:56 51°13.595 2°56.053 4.2824 1.728545 17.2234 4.140324
2005-03-11 08:00:01 51°13.6 2°56.041 4.264 1.694756 16.85989 4.140324
2005-03-11 08:00:06 51°13.605 2°56.031 4.2682 1.639779 16.263718 4.174033
2005-03-11 08:00:11 51°13.609 2°56.019 4.3296 1.592889 15.746539 4.308871
2005-03-11 08:00:16 51°13.615 2°56.006 4.3328 1.554606 15.329134 4.376289
2005-03-11 08:00:21 51°13.621 2°55.994 4.3236 1.515804 14.913603 4.477418
2005-03-11 08:00:26 51°13.626 2°55.982 4.3483 1.487807 14.606052 4.544836
2005-03-11 08:00:30 51°13.63 2°55.974 4.3387 1.487807 14.606052 4.544836
2005-03-11 08:00:36 51°13.637 2°55.959 4.3424 1.446079 14.158246 4.679674
2005-03-11 08:00:41 51°13.642 2°55.948 4.3293 1.397649 13.641116 4.645965
2005-03-11 08:00:46 51°13.648 2°55.934 4.2864 1.345665 13.079188 4.848221
2005-03-11 08:00:51 51°13.653 2°55.922 4.2661 1.309094 12.693172 4.91564
2005-03-11 08:00:56 51°13.658 2°55.909 4.2643 1.283844 12.422488 4.814512
2005-03-11 08:01:01 51°13.663 2°55.896 4.2145 1.283844 12.422488 4.814512
2005-03-11 08:01:06 51°13.668 2°55.884 4.2475 1.281434 12.393954 4.983059
2005-03-11 08:01:12 51°13.674 2°55.87 4.3132 1.311714 12.715903 5.084187
2005-03-11 08:01:16 51°13.678 2°55.858 4.2318 1.344617 13.064319 5.117896
2005-03-11 08:01:20 51°13.682 2°55.848 4.2236 1.349857 13.128922 5.117896
2005-03-11 08:01:25 51°13.687 2°55.835 4.2367 1.349857 13.128922 5.117896
2005-03-11 08:01:31 51°13.694 2°55.819 4.1733 1.380774 13.461713 5.252734
2005-03-11 08:01:36 51°13.699 2°55.806 4.1808 1.460652 14.322184 5.151606
2005-03-11 08:01:42 51°13.705 2°55.792 4.2007 1.509932 14.847356 5.084187
2005-03-11 08:01:46 51°13.711 2°55.78 4.1412 1.525032 15.00289 5.050477
2005-03-11 08:01:50 51°13.715 2°55.772 4.1241 1.533526 15.103287 5.084187
2005-03-11 08:01:56 51°13.723 2°55.755 4.1544 1.533526 15.103287 5.084187
2005-03-11 08:02:02 51°13.73 2°55.742 4.1333 1.548838 15.271503 4.949349
2005-03-11 08:02:07 51°13.738 2°55.729 4.0947 1.573694 15.550214 4.949349
2005-03-11 08:02:12 51°13.744 2°55.719 4.0751 1.593938 15.772169 4.949349
2005-03-11 08:02:16 51°13.75 2°55.709 4.0834 1.620162 16.062802 4.747093
2005-03-11 08:02:22 51°13.758 2°55.697 4.0862 1.649746 16.39225 4.713383
2005-03-11 08:02:27 51°13.766 2°55.687 4.0465 1.690559 16.840701 4.679674
2005-03-11 08:02:32 51°13.774 2°55.678 4.0197 1.690559 16.840701 4.679674
2005-03-11 08:02:37 51°13.782 2°55.67 4.0207 1.718261 17.141411 4.544836
2005-03-11 08:02:42 51°13.791 2°55.662 4.0088 1.750898 17.509937 4.376289
2005-03-11 08:02:47 51°13.8 2°55.653 4.0368 1.777871 17.814154 4.308871
2005-03-11 08:02:52 51°13.808 2°55.647 4.0792 1.813558 18.210552 4.275161
2005-03-11 08:02:56 51°13.816 2°55.64 4.064 1.813558 18.210552 4.275161
2005-03-11 08:03:02 51°13.825 2°55.632 4.0732 1.843055 18.542766 4.241452
2005-03-11 08:03:06 51°13.834 2°55.626 4.0541 1.890823 19.08075 4.409999
2005-03-11 08:03:12 51°13.844 2°55.619 4.07 1.917493 19.384147 5.185315
2005-03-11 08:03:17 51°13.853 2°55.612 4.0023 1.885154 19.034834 5.994341
2005-03-11 08:03:21 51°13.861 2°55.606 4.0268 1.914133 19.349736 6.769657
2005-03-11 08:03:26 51°13.87 2°55.599 4.0086 1.914133 19.349736 6.769657
2005-03-11 08:03:32 51°13.881 2°55.591 4.0032 1.902268 19.2087 7.376426
2005-03-11 08:03:36 51°13.889 2°55.586 3.975 1.900798 19.186838 7.848358
2005-03-11 08:03:41 51°13.898 2°55.58 3.9694 1.918437 19.383064 7.983195
2005-03-11 08:03:46 51°13.907 2°55.574 3.9643 1.948784 19.723931 7.949486
2005-03-11 08:03:51 51°13.916 2°55.568 3.9546 1.972938 19.998209 7.679811
2005-03-11 08:03:56 51°13.927 2°55.561 3.9494 2.013897 20.460383 7.578683
2005-03-11 08:04:01 51°13.935 2°55.555 3.9668 2.013897 20.460383 7.578683
2005-03-11 08:04:06 51°13.945 2°55.548 3.925 2.049084 20.855354 7.073042
2005-03-11 08:04:10 51°13.953 2°55.542 3.9357 2.066626 21.061719 6.735947
2005-03-11 08:04:16 51°13.965 2°55.534 3.9317 2.091733 21.351667 6.365144
2005-03-11 08:04:20 51°13.972 2°55.529 3.9246 2.110958 21.574274 5.893212
2005-03-11 08:04:27 51°13.985 2°55.52 3.9216 2.125246 21.740324 5.522409
2005-03-11 08:04:32 51°13.994 2°55.514 3.912 2.125246 21.740324 5.522409
2005-03-11 08:04:36 51°14.002 2°55.508 3.9082 2.120729 21.692182 5.219024
2005-03-11 08:04:42 51°14.012 2°55.5 3.9023 2.134387 21.854918 4.814512
2005-03-11 08:04:45 51°14.019 2°55.496 3.9067 2.13113 21.822609 4.612255
2005-03-11 08:04:50 51°14.028 2°55.489 3.8889 2.125352 21.761495 4.511127
2005-03-11 08:04:56 51°14.04 2°55.48 3.8852 2.125352 21.761495 4.511127
2005-03-11 08:05:01 51°14.049 2°55.474 3.8875 2.133862 21.85968 4.241452
2005-03-11 08:05:07 51°14.061 2°55.465 3.8971 2.142582 21.964454 4.106614
2005-03-11 08:05:11 51°14.069 2°55.459 3.89 2.150357 22.056951 4.039195
2005-03-11 08:05:16 51°14.079 2°55.451 3.8883 2.159919 22.16597 3.870648
2005-03-11 08:05:21 51°14.09 2°55.443 3.8807 2.162441 22.200872 3.76952
2005-03-11 08:05:26 51°14.099 2°55.436 3.8817 2.162441 22.200872 3.76952
2005-03-11 08:05:31 51°14.11 2°55.428 3.9256 2.167694 22.264061 3.702101
2005-03-11 08:05:36 51°14.121 2°55.419 3.8919 2.177782 22.382807 3.702101
2005-03-11 08:05:41 51°14.132 2°55.412 3.8801 2.177046 22.37333 3.600973
2005-03-11 08:05:46 51°14.142 2°55.404 3.9005 2.170006 22.295452 3.567264
2005-03-11 08:05:51 51°14.154 2°55.394 3.9076 2.162756 22.214637 3.567264
2005-03-11 08:05:57 51°14.168 2°55.382 3.9179 2.150988 22.084346 3.567264
2005-03-11 08:06:02 51°14.178 2°55.372 3.9178 2.150988 22.084346 3.567264
2005-03-11 08:06:06 51°14.187 2°55.363 3.9216 2.137329 21.925191 3.533554
2005-03-11 08:06:11 51°14.199 2°55.35 3.9543 2.136068 21.911651 3.432426
2005-03-11 08:06:16 51°14.209 2°55.339 3.9499 2.13092 21.85632 3.466136
2005-03-11 08:06:22 51°14.222 2°55.323 3.9596 2.126508 21.803917 3.432426
2005-03-11 08:06:26 51°14.231 2°55.312 3.9459 2.131025 21.849801 3.466136
2005-03-11 08:06:32 51°14.243 2°55.295 3.949 2.131025 21.849801 3.466136
2005-03-11 08:06:36 51°14.252 2°55.281 3.9491 2.11411 21.659208 3.432426
2005-03-11 08:06:41 51°14.262 2°55.266 3.9495 2.104865 21.550506 3.466136
2005-03-11 08:06:46 51°14.271 2°55.251 3.9647 2.072824 21.184452 3.466136
2005-03-11 08:06:51 51°14.281 2°55.234 3.9693 2.034694 20.754892 3.499845
2005-03-11 08:06:56 51°14.291 2°55.216 3.9644 2.034694 20.754892 3.499845
2005-03-11 08:07:00 51°14.298 2°55.202 3.9528 2.005705 20.4291 3.499845
2005-03-11 08:07:07 51°14.31 2°55.179 3.9906 1.990687 20.261719 3.533554
2005-03-11 08:07:11 51°14.319 2°55.163 3.9583 1.973568 20.070114 3.567264
2005-03-11 08:07:16 51°14.327 2°55.147 3.9437 1.95225 19.833276 3.567264
2005-03-11 08:07:21 51°14.336 2°55.128 3.937 1.950675 19.810468 3.634683
2005-03-11 08:07:26 51°14.344 2°55.112 3.9189 1.94658 19.765123 3.567264
2005-03-11 08:07:31 51°14.354 2°55.091 3.8983 1.94658 19.765123 3.567264
2005-03-11 08:07:36 51°14.362 2°55.072 3.8661 1.94511 19.748848 3.567264
2005-03-11 08:07:41 51°14.37 2°55.053 3.8646 1.941539 19.704533 3.567264
2005-03-11 08:07:46 51°14.376 2°55.034 3.8534 1.940384 19.696013 3.600973
2005-03-11 08:07:52 51°14.384 2°55.009 3.8543 1.966742 19.993336 3.398717
2005-03-11 08:07:56 51°14.39 2°54.989 3.8773 1.987851 20.237355 3.567264
2005-03-11 08:08:01 51°14.395 2°54.966 3.8472 1.987851 20.237355 3.567264
2005-03-11 08:08:06 51°14.4 2°54.946 3.8522 2.014108 20.542508 3.263879
2005-03-11 08:08:11 51°14.404 2°54.919 3.8445 2.073245 21.219006 3.398717
2005-03-11 08:08:16 51°14.408 2°54.895 3.8415 2.104866 21.580308 3.297589
2005-03-11 08:08:21 51°14.411 2°54.87 3.8205 2.116212 21.716842 3.23017
2005-03-11 08:08:26 51°14.414 2°54.846 3.7866 2.116212 21.716842 3.23017
2005-03-11 08:08:30 51°14.416 2°54.826 3.7779 2.131026 21.885368 3.263879
2005-03-11 08:08:36 51°14.42 2°54.791 3.7594 2.125773 21.827611 3.23017
2005-03-11 08:08:41 51°14.421 2°54.766 3.7444 2.140166 21.99334 3.23017
2005-03-11 08:08:46 51°14.423 2°54.739 3.7268 2.154876 22.161607 3.19646
2005-03-11 08:08:51 51°14.423 2°54.708 3.7068 2.18209 22.47141 3.061623
2005-03-11 08:08:56 51°14.424 2°54.682 3.7113 2.18209 22.47141 3.061623
2005-03-11 08:09:01 51°14.423 2°54.651 3.6896 2.197537 22.657095 3.061623
2005-03-11 08:09:06 51°14.423 2°54.625 3.66 2.245668 23.218768 3.129042
2005-03-11 08:09:10 51°14.421 2°54.601 3.6453 2.277093 23.588699 3.095332
2005-03-11 08:09:16 51°14.421 2°54.566 3.6254 2.29412 23.796754 3.129042
2005-03-11 08:09:21 51°14.419 2°54.533 3.589 2.341737 24.35944 3.129042
2005-03-11 08:09:26 51°14.419 2°54.507 3.5831 2.367598 24.664421 3.095332
2005-03-11 08:09:30 51°14.417 2°54.483 3.5741 2.367598 24.664421 3.095332
2005-03-11 08:09:36 51°14.414 2°54.444 3.5577 2.392934 24.965425 3.129042
2005-03-11 08:09:40 51°14.41 2°54.421 3.5424 2.420796 25.302238 2.960494
2005-03-11 08:09:46 51°14.405 2°54.389 3.5075 2.443507 25.581547 2.994204
2005-03-11 08:09:52 51°14.398 2°54.355 3.5027 2.462539 25.816429 2.926785
2005-03-11 08:09:56 51°14.392 2°54.329 3.4901 2.462539 25.816429 2.926785
2005-03-11 08:10:01 51°14.386 2°54.303 3.4935 2.504707 26.322129 2.926785
2005-03-11 08:10:06 51°14.379 2°54.276 3.4834 2.522795 26.546148 2.893076
2005-03-11 08:10:10 51°14.373 2°54.254 3.4943 2.542461 26.787416 2.893076
2005-03-11 08:10:16 51°14.363 2°54.217 3.481 2.537203 26.741224 2.791947
2005-03-11 08:10:21 51°14.355 2°54.19 3.4744 2.579483 27.251301 2.758238
2005-03-11 08:10:26 51°14.348 2°54.164 3.4799 2.579483 27.251301 2.758238
2005-03-11 08:10:31 51°14.339 2°54.134 3.4778 2.592104 27.409144 2.825657
2005-03-11 08:10:36 51°14.332 2°54.105 3.4796 2.596312 27.470102 2.724529
2005-03-11 08:10:40 51°14.326 2°54.083 3.4782 2.605252 27.580149 2.690819
2005-03-11 08:10:46 51°14.317 2°54.048 3.4859 2.608829 27.622526 2.724529
2005-03-11 08:10:50 51°14.313 2°54.028 3.4706 2.614193 27.687252 2.690819
2005-03-11 08:10:56 51°14.304 2°53.991 3.4629 2.613457 27.68248 2.690819
2005-03-11 08:11:02 51°14.295 2°53.96 3.429 2.613457 27.68248 2.690819
2005-03-11 08:11:07 51°14.286 2°53.932 3.4273 2.624607 27.813877 2.65711
2005-03-11 08:11:11 51°14.277 2°53.908 3.4316 2.621872 27.78354 2.6234
2005-03-11 08:11:16 51°14.267 2°53.882 3.4169 2.61493 27.704955 2.65711
2005-03-11 08:11:21 51°14.257 2°53.858 3.4173 2.624396 27.817538 2.690819
2005-03-11 08:11:26 51°14.246 2°53.833 3.4162 2.628499 27.873776 2.589691
2005-03-11 08:11:30 51°14.237 2°53.813 3.4113 2.628499 27.873776 2.589691
2005-03-11 08:11:36 51°14.222 2°53.78 3.4018 2.631024 27.917025 2.555982
2005-03-11 08:11:40 51°14.213 2°53.76 3.4059 2.613562 27.725591 2.555982
2005-03-11 08:11:45 51°14.202 2°53.735 3.4175 2.637756 28.014073 2.555982
2005-03-11 08:11:50 51°14.192 2°53.711 3.4147 2.619663 27.809755 2.488563
2005-03-11 08:11:56 51°14.179 2°53.68 3.4061 2.619663 27.809755 2.488563
2005-03-11 08:12:00 51°14.171 2°53.659 3.4324 2.645435 28.113057 2.454853
2005-03-11 08:12:06 51°14.159 2°53.627 3.4218 2.643016 28.087874 2.421144
2005-03-11 08:12:12 51°14.147 2°53.595 3.42 2.633759 27.985106 2.387435
2005-03-11 08:12:16 51°14.138 2°53.571 3.4379 2.643542 28.100211 2.454853
2005-03-11 08:12:21 51°14.127 2°53.544 3.4169 2.63155 27.957758 2.421144
2005-03-11 08:12:27 51°14.116 2°53.515 3.4081 2.63155 27.957758 2.421144
2005-03-11 08:12:30 51°14.108 2°53.496 3.4103 2.639439 28.048395 2.387435
2005-03-11 08:12:36 51°14.095 2°53.465 3.4072 2.629341 27.925803 2.387435
2005-03-11 08:12:42 51°14.083 2°53.436 3.411 2.643752 28.091067 2.387435
2005-03-11 08:12:46 51°14.074 2°53.416 3.4114 2.629972 27.930867 2.421144
2005-03-11 08:12:51 51°14.062 2°53.387 3.4077 2.627553 27.90108 2.421144
2005-03-11 08:12:56 51°14.052 2°53.363 3.4047 2.650064 28.171812 2.421144
2005-03-11 08:13:02 51°14.038 2°53.333 3.4051 2.650064 28.171812 2.421144
2005-03-11 08:13:06 51°14.028 2°53.308 3.4158 2.648486 28.156464 2.421144
2005-03-11 08:13:11 51°14.018 2°53.284 3.4198 2.646698 28.14098 2.421144
2005-03-11 08:13:16 51°14.007 2°53.255 3.4018 2.646277 28.136834 2.488563
2005-03-11 08:13:21 51°13.997 2°53.23 3.4172 2.647644 28.156704 2.353725
2005-03-11 08:13:25 51°13.988 2°53.206 3.4124 2.618507 27.815392 2.320016
2005-03-11 08:13:30 51°13.979 2°53.181 3.3932 2.618507 27.815392 2.320016
2005-03-11 08:13:36 51°13.966 2°53.145 3.4 2.651221 28.19854 2.320016
2005-03-11 08:13:41 51°13.956 2°53.121 3.3921 2.644699 28.117609 2.421144
2005-03-11 08:13:46 51°13.946 2°53.094 3.393 2.650169 28.1808 2.320016
2005-03-11 08:13:52 51°13.932 2°53.061 3.3976 2.625449 27.891873 2.387435
2005-03-11 08:13:56 51°13.923 2°53.04 3.4017 2.625449 27.891873 2.387435
2005-03-11 08:14:00 51°13.913 2°53.016 3.393 2.6427 28.09192 2.320016
2005-03-11 08:14:05 51°13.902 2°52.989 3.4009 2.654482 28.236692 2.286306
2005-03-11 08:14:12 51°13.887 2°52.954 3.399 2.650485 28.19614 2.252597
2005-03-11 08:14:16 51°13.877 2°52.93 3.4012 2.638177 28.0545 2.320016
2005-03-11 08:14:22 51°13.865 2°52.901 3.3943 2.652483 28.223414 2.353725
2005-03-11 08:14:26 51°13.857 2°52.879 3.3938 2.640491 28.082338 2.286306
2005-03-11 08:14:31 51°13.845 2°52.849 3.391 2.640491 28.082338 2.286306
2005-03-11 08:14:36 51°13.834 2°52.821 3.4004 2.6508 28.204495 2.320016
2005-03-11 08:14:41 51°13.823 2°52.794 3.3879 2.651431 28.211881 2.252597
2005-03-11 08:14:46 51°13.814 2°52.77 3.3981 2.648802 28.18033 2.286306
2005-03-11 08:14:52 51°13.801 2°52.737 3.3942 2.652168 28.218944 2.286306
2005-03-11 08:14:56 51°13.791 2°52.712 3.3878 2.644068 28.124172 2.252597
2005-03-11 08:15:01 51°13.782 2°52.687 3.3889 2.644068 28.124172 2.252597
2005-03-11 08:15:06 51°13.769 2°52.657 3.3954 2.64249 28.109588 2.218888
2005-03-11 08:15:12 51°13.758 2°52.628 3.3907 2.637862 28.054675 2.185178
2005-03-11 08:15:16 51°13.748 2°52.604 3.3942 2.644173 28.130054 2.117759
2005-03-11 08:15:21 51°13.737 2°52.576 3.4062 2.653009 28.232682 2.117759
2005-03-11 08:15:26 51°13.727 2°52.551 3.3969 2.649328 28.191922 2.08405
2005-03-11 08:15:30 51°13.719 2°52.529 3.3825 2.649328 28.191922 2.08405
2005-03-11 08:15:36 51°13.706 2°52.496 3.3778 2.646593 28.160691 2.016631
2005-03-11 08:15:41 51°13.694 2°52.466 3.3853 2.641438 28.099606 1.982922
2005-03-11 08:15:45 51°13.686 2°52.443 3.3832 2.643963 28.129143 2.08405
2005-03-11 08:15:50 51°13.676 2°52.418 3.3846 2.650485 28.203133 1.949212
2005-03-11 08:15:56 51°13.663 2°52.382 3.3845 2.650485 28.203133 1.949212
2005-03-11 08:16:01 51°13.653 2°52.356 3.3991 2.632918 27.99686 1.949212
2005-03-11 08:16:06 51°13.643 2°52.329 3.3912 2.655429 28.266457 1.949212
2005-03-11 08:16:12 51°13.63 2°52.295 3.3817 2.640176 28.091033 1.982922
2005-03-11 08:16:16 51°13.62 2°52.271 3.3913 2.650274 28.208445 1.915503
2005-03-11 08:16:20 51°13.611 2°52.248 3.3777 2.656902 28.2876 1.982922
2005-03-11 08:16:26 51°13.597 2°52.215 3.3892 2.652483 28.235086 1.949212
2005-03-11 08:16:31 51°13.586 2°52.188 3.3857 2.652483 28.235086 1.949212
2005-03-11 08:16:36 51°13.575 2°52.161 3.3895 2.655008 28.265426 2.016631
2005-03-11 08:16:41 51°13.565 2°52.136 3.39 2.650064 28.208316 2.016631
2005-03-11 08:16:47 51°13.552 2°52.103 3.3827 2.657848 28.301029 1.982922
2005-03-11 08:16:51 51°13.542 2°52.078 3.3881 2.653746 28.254539 2.050341
2005-03-11 08:16:56 51°13.531 2°52.05 3.3899 2.648696 28.193861 1.982922
2005-03-11 08:17:01 51°13.521 2°52.022 3.3823 2.648696 28.193861 1.982922
2005-03-11 08:17:06 51°13.511 2°51.997 3.3934 2.647224 28.17662 1.982922
2005-03-11 08:17:10 51°13.502 2°51.975 3.3848 2.653009 28.242801 2.08405
2005-03-11 08:17:16 51°13.488 2°51.939 3.3801 2.658164 28.303945 2.016631
2005-03-11 08:17:20 51°13.48 2°51.917 3.3835 2.647119 28.173835 2.151469
2005-03-11 08:17:25 51°13.469 2°51.889 3.3894 2.654061 28.25434 2.050341
2005-03-11 08:17:31 51°13.457 2°51.858 3.3798 2.654061 28.25434 2.050341
2005-03-11 08:17:36 51°13.445 2°51.828 3.3823 2.626501 27.931854 2.08405
2005-03-11 08:17:41 51°13.434 2°51.801 3.3787 2.652904 28.239234 2.016631
2005-03-11 08:17:46 51°13.423 2°51.772 3.3753 2.638598 28.074119 2.050341
2005-03-11 08:17:51 51°13.413 2°51.745 3.3841 2.65606 28.281643 2.050341
2005-03-11 08:17:56 51°13.403 2°51.72 3.388 2.65606 28.281643 2.050341
2005-03-11 08:18:01 51°13.391 2°51.689 3.3789 2.651958 28.231263 2.016631
2005-03-11 08:18:07 51°13.379 2°51.659 3.3819 2.651958 28.234376 2.050341
2005-03-11 08:18:10 51°13.373 2°51.642 3.381 2.649222 28.203129 2.050341
2005-03-11 08:18:16 51°13.359 2°51.606 3.3894 2.648591 28.200405 2.016631
2005-03-11 08:18:21 51°13.348 2°51.579 3.3819 2.649433 28.209482 2.08405
2005-03-11 08:18:26 51°13.337 2°51.554 3.3858 2.652378 28.24164 2.117759
2005-03-11 08:18:31 51°13.326 2°51.524 3.3862 2.652378 28.24164 2.117759
2005-03-11 08:18:36 51°13.316 2°51.499 3.3759 2.640807 28.108492 2.050341
2005-03-11 08:18:41 51°13.304 2°51.468 3.3857 2.647329 28.182514 2.353725
2005-03-11 08:18:46 51°13.294 2°51.444 3.3858 2.649538 28.206046 2.08405
2005-03-11 08:18:51 51°13.282 2°51.413 3.3809 2.657743 28.302918 2.050341
2005-03-11 08:18:56 51°13.271 2°51.385 3.3789 2.657743 28.302918 2.050341
2005-03-11 08:19:01 51°13.261 2°51.36 3.3747 2.647119 28.180828 2.050341
2005-03-11 08:19:06 51°13.251 2°51.333 3.3807 2.648697 28.199303 2.050341
2005-03-11 08:19:11 51°13.24 2°51.305 3.3778 2.653641 28.258762 2.08405
2005-03-11 08:19:16 51°13.228 2°51.274 3.38 2.646593 28.17467 2.151469
2005-03-11 08:19:20 51°13.219 2°51.252 3.3789 2.6508 28.224718 2.08405
2005-03-11 08:19:26 51°13.206 2°51.218 3.3905 2.640071 28.098323 2.185178
2005-03-11 08:19:30 51°13.198 2°51.199 3.3951 2.640071 28.098323 2.185178
2005-03-11 08:19:36 51°13.184 2°51.163 3.3813 2.646593 28.177001 2.050341
2005-03-11 08:19:41 51°13.174 2°51.138 3.374 2.656797 28.29729 2.117759
2005-03-11 08:19:46 51°13.163 2°51.111 3.38 2.653325 28.256624 2.117759
2005-03-11 08:19:51 51°13.152 2°51.083 3.3813 2.661741 28.355222 2.050341
2005-03-11 08:19:56 51°13.14 2°51.052 3.3746 2.656165 28.286775 2.117759
2005-03-11 08:20:02 51°13.128 2°51.022 3.3754 2.656165 28.286775 2.117759
2005-03-11 08:20:06 51°13.12 2°51 3.3883 2.655745 28.277947 2.050341
2005-03-11 08:20:11 51°13.108 2°50.969 3.3804 2.658164 28.308628 2.050341
2005-03-11 08:20:16 51°13.097 2°50.941 3.3914 2.654377 28.266608 1.915503
2005-03-11 08:20:20 51°13.088 2°50.918 3.3856 2.650485 28.221022 1.915503
2005-03-11 08:20:25 51°13.078 2°50.89 3.3745 2.657849 28.308834 1.848084
2005-03-11 08:20:31 51°13.065 2°50.857 3.3825 2.657849 28.308834 1.848084
2005-03-11 08:20:36 51°13.054 2°50.828 3.4021 2.660163 28.339076 1.949212
2005-03-11 08:20:40 51°13.046 2°50.806 3.3895 2.652273 28.245861 1.881794
2005-03-11 08:20:46 51°13.033 2°50.771 3.3856 2.660584 28.342444 1.814375
2005-03-11 08:20:52 51°13.021 2°50.741 3.3851 2.651537 28.233342 1.746956
2005-03-11 08:20:56 51°13.013 2°50.718 3.3829 2.651537 28.233342 1.746956
2005-03-11 08:21:00 51°13.004 2°50.692 3.3822 2.650064 28.21843 1.848084
2005-03-11 08:21:06 51°12.992 2°50.661 3.378 2.656481 28.295934 1.780665
2005-03-11 08:21:10 51°12.984 2°50.638 3.3787 2.657428 28.300002 1.814375
2005-03-11 08:21:16 51°12.971 2°50.601 3.3771 2.660689 28.337423 1.746956
2005-03-11 08:21:20 51°12.963 2°50.578 3.3806 2.650274 28.21778 1.814375
2005-03-11 08:21:26 51°12.95 2°50.543 3.3741 2.650274 28.21778 1.814375
2005-03-11 08:21:32 51°12.938 2°50.512 3.3806 2.66153 28.351192 1.780665
2005-03-11 08:21:36 51°12.929 2°50.487 3.3853 2.645225 28.160989 1.780665
2005-03-11 08:21:41 51°12.918 2°50.459 3.3838 2.652063 28.241838 1.746956
2005-03-11 08:21:46 51°12.908 2°50.434 3.3837 2.654903 28.276668 1.780665
2005-03-11 08:21:52 51°12.895 2°50.4 3.381 2.662372 28.364183 1.746956
2005-03-11 08:21:56 51°12.886 2°50.375 3.3876 2.657849 28.311958 1.746956
2005-03-11 08:22:01 51°12.876 2°50.349 3.3843 2.657849 28.311958 1.746956
2005-03-11 08:22:05 51°12.867 2°50.324 3.386 2.649117 28.209676 1.780665
2005-03-11 08:22:11 51°12.855 2°50.293 3.3805 2.642701 28.132208 1.780665
2005-03-11 08:22:16 51°12.843 2°50.262 3.382 2.638703 28.086191 1.814375
2005-03-11 08:22:21 51°12.834 2°50.236 3.3841 2.64512 28.161311 1.746956
2005-03-11 08:22:26 51°12.822 2°50.204 3.374 2.658059 28.312861 1.746956
2005-03-11 08:22:31 51°12.811 2°50.176 3.3816 2.658059 28.312861 1.746956
2005-03-11 08:22:36 51°12.801 2°50.148 3.3766 2.659847 28.333033 1.780665
2005-03-11 08:22:42 51°12.789 2°50.117 3.3835 2.654482 28.269399 1.814375
2005-03-11 08:22:46 51°12.781 2°50.094 3.374 2.652694 28.25079 1.814375
2005-03-11 08:22:50 51°12.772 2°50.071 3.3788 2.652378 28.245535 1.814375
2005-03-11 08:22:56 51°12.759 2°50.034 3.3759 2.652378 28.245535 1.814375
2005-03-11 08:23:02 51°12.747 2°50.003 3.3817 2.654903 28.276668 1.746956
2005-03-11 08:23:06 51°12.739 2°49.981 3.3824 2.655534 28.285622 1.780665
2005-03-11 08:23:10 51°12.731 2°49.958 3.3765 2.654167 28.269601 1.848084
2005-03-11 08:23:16 51°12.717 2°49.92 3.3797 2.656481 28.295934 1.814375
2005-03-11 08:23:21 51°12.708 2°49.895 3.3806 2.658164 28.316436 1.814375
2005-03-11 08:23:27 51°12.695 2°49.861 3.3886 2.647645 28.193984 1.848084
2005-03-11 08:23:32 51°12.684 2°49.832 3.3903 2.647645 28.193984 1.848084
2005-03-11 08:23:37 51°12.674 2°49.804 3.3865 2.64533 28.167659 1.848084
2005-03-11 08:23:42 51°12.663 2°49.775 3.3794 2.660584 28.344789 1.780665
2005-03-11 08:23:46 51°12.655 2°49.752 3.3831 2.648907 28.208768 1.848084
2005-03-11 08:23:51 51°12.643 2°49.721 3.3867 2.659006 28.326298 1.814375
2005-03-11 08:23:56 51°12.633 2°49.693 3.3973 2.651221 28.233539 1.780665
2005-03-11 08:24:01 51°12.624 2°49.667 3.3897 2.651221 28.233539 1.780665
2005-03-11 08:24:05 51°12.614 2°49.641 3.3829 2.656691 28.298399 1.949212
2005-03-11 08:24:11 51°12.602 2°49.607 3.3838 2.657007 28.300536 1.848084
2005-03-11 08:24:16 51°12.591 2°49.578 3.3831 2.644804 28.157616 1.848084
2005-03-11 08:24:21 51°12.582 2°49.55 3.3759 2.657954 28.310847 1.881794
2005-03-11 08:24:26 51°12.573 2°49.524 3.381 2.657954 28.310847 1.881794
2005-03-11 08:24:31 51°12.561 2°49.493 3.3873 2.634811 28.040638 1.915503
2005-03-11 08:24:36 51°12.55 2°49.464 3.3886 2.647329 28.184846 1.881794
2005-03-11 08:24:41 51°12.54 2°49.436 3.3825 2.65322 28.255392 1.982922
2005-03-11 08:24:46 51°12.53 2°49.41 3.3869 2.642595 28.130201 1.949212
2005-03-11 08:24:50 51°12.521 2°49.387 3.3933 2.65301 28.255266 1.881794
2005-03-11 08:24:56 51°12.508 2°49.35 3.3855 2.65301 28.255266 1.881794
2005-03-11 08:25:00 51°12.499 2°49.328 3.3917 2.659216 28.328763 1.915503
2005-03-11 08:25:06 51°12.486 2°49.293 3.3909 2.654377 28.272066 1.915503
2005-03-11 08:25:10 51°12.479 2°49.273 3.3876 2.647539 28.188864 1.949212
2005-03-11 08:25:16 51°12.465 2°49.236 3.3883 2.664476 28.387275 1.949212
2005-03-11 08:25:20 51°12.457 2°49.213 3.3908 2.656691 28.296838 1.949212
2005-03-11 08:25:26 51°12.444 2°49.179 3.3867 2.632181 28.00832 1.915503
2005-03-11 08:25:32 51°12.433 2°49.148 3.3972 2.632181 28.00832 1.915503
2005-03-11 08:25:36 51°12.424 2°49.122 3.3954 2.640807 28.108492 1.881794
2005-03-11 08:25:41 51°12.415 2°49.096 3.3901 2.65848 28.314667 1.881794
2005-03-11 08:25:46 51°12.404 2°49.068 3.3903 2.644278 28.148352 1.915503
2005-03-11 08:25:51 51°12.393 2°49.037 3.393 2.641017 28.110179 1.982922
2005-03-11 08:25:56 51°12.382 2°49.008 3.3903 2.653115 28.251043 1.915503
2005-03-11 08:26:00 51°12.374 2°48.985 3.397 2.653115 28.251043 1.915503
2005-03-11 08:26:05 51°12.363 2°48.957 3.3933 2.649538 28.20838 1.949212
2005-03-11 08:26:11 51°12.352 2°48.925 3.3926 2.659111 28.3205 1.881794
2005-03-11 08:26:16 51°12.34 2°48.894 3.3979 2.653641 28.258762 1.881794
2005-03-11 08:26:20 51°12.332 2°48.871 3.3958 2.649854 28.213631 1.881794
2005-03-11 08:26:26 51°12.32 2°48.84 3.4023 2.649854 28.213631 1.881794
2005-03-11 08:26:31 51°12.309 2°48.808 3.4045 2.652904 28.249358 1.848084
2005-03-11 08:26:36 51°12.3 2°48.783 3.3879 2.648802 28.198202 1.881794
2005-03-11 08:26:41 51°12.288 2°48.751 3.3958 2.64249 28.125866 1.814375
2005-03-11 08:26:46 51°12.278 2°48.725 3.3831 2.654061 28.258235 1.915503
2005-03-11 08:26:51 51°12.268 2°48.696 3.3939 2.654587 28.264395 1.848084
2005-03-11 08:26:56 51°12.257 2°48.665 3.3954 2.648065 28.188803 1.780665
2005-03-11 08:27:02 51°12.245 2°48.634 3.3941 2.648065 28.188803 1.780665
2005-03-11 08:27:06 51°12.236 2°48.611 3.4009 2.641543 28.112459 1.780665
2005-03-11 08:27:11 51°12.225 2°48.58 3.3972 2.65606 28.283203 1.780665
2005-03-11 08:27:16 51°12.215 2°48.554 3.3985 2.659532 28.32621 1.746956
2005-03-11 08:27:21 51°12.205 2°48.525 3.3911 2.646277 28.172529 1.746956
2005-03-11 08:27:26 51°12.195 2°48.497 3.3961 2.652378 28.24164 1.746956
2005-03-11 08:27:30 51°12.185 2°48.471 3.3994 2.652378 28.24164 1.746956
2005-03-11 08:27:36 51°12.174 2°48.44 3.4001 2.660163 28.332043 1.713247
2005-03-11 08:27:42 51°12.161 2°48.405 3.4012 2.658059 28.303493 1.713247
2005-03-11 08:27:46 51°12.153 2°48.382 3.4086 2.649433 28.203259 1.713247
2005-03-11 08:27:51 51°12.142 2°48.351 3.4002 2.647224 28.178174 1.645828
2005-03-11 08:27:56 51°12.132 2°48.322 3.3991 2.647224 28.178174 1.645828
2005-03-11 08:28:01 51°12.122 2°48.296 3.4034 2.651221 28.225754 1.679537
2005-03-11 08:28:06 51°12.112 2°48.268 3.3996 2.649748 28.206176 1.746956
2005-03-11 08:28:11 51°12.1 2°48.236 3.4039 2.650695 28.216483 1.679537
2005-03-11 08:28:16 51°12.09 2°48.207 3.404 2.621662 27.876051 1.612118
2005-03-11 08:28:20 51°12.082 2°48.185 3.4021 2.647119 28.173058 1.679537
2005-03-11 08:28:26 51°12.069 2°48.15 3.4055 2.647119 28.173058 1.679537
2005-03-11 08:28:31 51°12.059 2°48.122 3.4019 2.637125 28.056889 1.645828
2005-03-11 08:28:36 51°12.05 2°48.095 3.4063 2.658164 28.300823 1.679537
2005-03-11 08:28:41 51°12.038 2°48.064 3.4034 2.658059 28.300372 1.679537
2005-03-11 08:28:46 51°12.029 2°48.039 3.4145 2.651221 28.219529 1.612118
2005-03-11 08:28:51 51°12.017 2°48.007 3.4031 2.636704 28.048873 1.645828
2005-03-11 08:28:56 51°12.007 2°47.978 3.393 2.655639 28.272817 1.679537
2005-03-11 08:29:01 51°11.996 2°47.95 3.3943 2.655639 28.272817 1.679537
2005-03-11 08:29:07 51°11.985 2°47.918 3.4064 2.649433 28.198594 1.645828
2005-03-11 08:29:11 51°11.977 2°47.895 3.403 2.655429 28.266457 1.679537
2005-03-11 08:29:17 51°11.964 2°47.861 3.3941 2.659111 28.311131 1.746956
2005-03-11 08:29:22 51°11.954 2°47.832 3.3984 2.657533 28.291872 1.679537
2005-03-11 08:29:26 51°11.944 2°47.806 3.4 2.661425 28.339799 1.679537
2005-03-11 08:29:31 51°11.934 2°47.778 3.3916 2.661425 28.339799 1.679537
2005-03-11 08:29:36 51°11.925 2°47.752 3.3943 2.664686 28.380348 1.679537
2005-03-11 08:29:41 51°11.914 2°47.721 3.3932 2.643437 28.129967 1.780665
2005-03-11 08:29:46 51°11.904 2°47.696 3.4052 2.640491 28.096274 1.679537
2005-03-11 08:29:51 51°11.893 2°47.664 3.4016 2.664371 28.378215 1.679537
2005-03-11 08:29:56 51°11.883 2°47.636 3.4018 2.664371 28.378215 1.679537
2005-03-11 08:30:00 51°11.874 2°47.613 3.4004 2.652589 28.241768 1.679537
2005-03-11 08:30:06 51°11.862 2°47.578 3.3873 2.663424 28.371816 1.746956
2005-03-11 08:30:11 51°11.852 2°47.55 3.3905 2.658374 28.311092 1.713247
2005-03-11 08:30:16 51°11.842 2°47.521 3.391 2.654482 28.263942 1.780665
2005-03-11 08:30:21 51°11.832 2°47.496 3.3882 2.653746 28.25376 1.746956
2005-03-11 08:30:26 51°11.821 2°47.464 3.3925 2.649012 28.196778 1.780665
2005-03-11 08:30:31 51°11.811 2°47.436 3.3963 2.649012 28.196778 1.780665
2005-03-11 08:30:36 51°11.801 2°47.408 3.402 2.661846 28.346291 1.746956
2005-03-11 08:30:41 51°11.79 2°47.38 3.3848 2.653956 28.256224 1.679537
2005-03-11 08:30:46 51°11.781 2°47.354 3.386 2.651326 28.228542 1.780665
2005-03-11 08:30:51 51°11.77 2°47.323 3.4002 2.652694 28.246115 1.780665
2005-03-11 08:30:56 51°11.76 2°47.295 3.3916 2.654377 28.268167 1.780665
2005-03-11 08:31:02 51°11.748 2°47.264 3.3893 2.654377 28.268167 1.780665
2005-03-11 08:31:06 51°11.74 2°47.241 3.388 2.662793 28.36442 1.746956
2005-03-11 08:31:11 51°11.729 2°47.21 3.3902 2.657217 28.296757 1.746956
2005-03-11 08:31:16 51°11.719 2°47.181 3.3883 2.665107 28.392324 1.780665
2005-03-11 08:31:21 51°11.709 2°47.153 3.3829 2.655008 28.27556 1.780665
2005-03-11 08:31:26 51°11.7 2°47.127 3.3911 2.659637 28.328224 1.746956
2005-03-11 08:31:32 51°11.689 2°47.094 3.3842 2.659637 28.328224 1.746956
2005-03-11 08:31:36 51°11.68 2°47.067 3.3906 2.655219 28.278025 1.713247
2005-03-11 08:31:41 51°11.67 2°47.039 3.3885 2.665318 28.397139 1.746956
2005-03-11 08:31:46 51°11.662 2°47.013 3.3883 2.659952 28.332703 1.780665
2005-03-11 08:31:51 51°11.651 2°46.982 3.3852 2.666369 28.410253 1.814375
2005-03-11 08:31:56 51°11.641 2°46.954 3.3832 2.666369 28.410253 1.814375
2005-03-11 08:32:01 51°11.631 2°46.926 3.3864 2.669736 28.450499 2.016631
2005-03-11 08:32:06 51°11.621 2°46.898 3.384 2.664055 28.383126 2.185178
2005-03-11 08:32:11 51°11.611 2°46.87 3.3875 2.656481 28.294374 2.421144
2005-03-11 08:32:16 51°11.601 2°46.842 3.3841 2.651116 28.231528 2.690819
2005-03-11 08:32:21 51°11.593 2°46.813 3.3795 2.659216 28.327982 2.926785
2005-03-11 08:32:26 51°11.585 2°46.787 3.3997 2.669736 28.452854 3.19646
2005-03-11 08:32:31 51°11.576 2°46.755 3.3986 2.669736 28.452854 3.19646
2005-03-11 08:32:36 51°11.568 2°46.725 3.3792 2.66679 28.420672 3.398717
2005-03-11 08:32:41 51°11.561 2°46.698 3.3813 2.675417 28.522617 3.600973
2005-03-11 08:32:45 51°11.554 2°46.671 3.3805 2.675206 28.517788 3.668392
2005-03-11 08:32:52 51°11.545 2°46.632 3.3776 2.663214 28.376394 3.668392
2005-03-11 08:32:56 51°11.539 2°46.605 3.3763 2.670472 28.461488 3.702101
2005-03-11 08:33:00 51°11.533 2°46.581 3.3762 2.670472 28.461488 3.702101
2005-03-11 08:33:06 51°11.525 2°46.548 3.3764 2.650169 28.21577 3.76952
2005-03-11 08:33:12 51°11.517 2°46.512 3.3754 2.680782 28.580825 3.702101
2005-03-11 08:33:16 51°11.51 2°46.484 3.36 2.679099 28.565021 3.76952
2005-03-11 08:33:21 51°11.502 2°46.454 3.3644 2.670893 28.471134 3.567264
2005-03-11 08:33:26 51°11.495 2°46.427 3.3748 2.670893 28.471134 3.567264
2005-03-11 08:33:30 51°11.489 2°46.403 3.3741 2.668894 28.44848 3.499845
2005-03-11 08:33:36 51°11.478 2°46.364 3.3739 2.664055 28.394091 3.432426
2005-03-11 08:33:41 51°11.47 2°46.334 3.3797 2.641649 28.131532 3.365007
2005-03-11 08:33:46 51°11.462 2°46.307 3.378 2.677731 28.55528 3.19646
2005-03-11 08:33:50 51°11.456 2°46.283 3.3665 2.68478 28.64511 3.19646
2005-03-11 08:33:57 51°11.445 2°46.241 3.3728 2.68478 28.64511 3.19646
2005-03-11 08:34:01 51°11.438 2°46.213 3.3623 2.670788 28.480116 3.19646
2005-03-11 08:34:06 51°11.432 2°46.186 3.3783 2.677626 28.559562 3.19646
2005-03-11 08:34:11 51°11.424 2°46.155 3.3889 2.669105 28.4588 3.095332
2005-03-11 08:34:16 51°11.416 2°46.122 3.384 2.676048 28.537894 3.095332
2005-03-11 08:34:21 51°11.409 2°46.094 3.3713 2.678678 28.569543 2.960494
2005-03-11 08:34:27 51°11.4 2°46.058 3.3738 2.683622 28.628363 2.994204
2005-03-11 08:34:31 51°11.393 2°46.03 3.377 2.683622 28.628363 2.994204
2005-03-11 08:34:36 51°11.385 2°46 3.3767 2.680151 28.586038 2.926785
2005-03-11 08:34:41 51°11.378 2°45.973 3.383 2.679309 28.577739 2.859366
2005-03-11 08:34:46 51°11.368 2°45.939 3.3719 2.658269 28.326264 2.791947
2005-03-11 08:34:52 51°11.359 2°45.906 3.3761 2.668053 28.440965 2.758238
2005-03-11 08:34:56 51°11.352 2°45.879 3.3717 2.669315 28.460482 2.65711
2005-03-11 08:35:00 51°11.346 2°45.855 3.3853 2.669315 28.460482 2.65711
2005-03-11 08:35:05 51°11.338 2°45.825 3.3758 2.671314 28.483928 2.6234
2005-03-11 08:35:11 51°11.329 2°45.792 3.3781 2.678573 28.565943 2.488563
2005-03-11 08:35:16 51°11.321 2°45.761 3.3706 2.677626 28.554045 2.522272
2005-03-11 08:35:21 51°11.313 2°45.728 3.3726 2.675206 28.527232 2.454853
2005-03-11 08:35:26 51°11.305 2°45.697 3.3759 2.673628 28.508719 2.421144
2005-03-11 08:35:31 51°11.298 2°45.667 3.3725 2.673628 28.508719 2.421144
2005-03-11 08:35:37 51°11.289 2°45.633 3.3761 2.661636 28.368073 2.353725
2005-03-11 08:35:40 51°11.284 2°45.612 3.377 2.681308 28.596462 2.387435
2005-03-11 08:35:45 51°11.275 2°45.582 3.3746 2.667527 28.434013 2.353725
2005-03-11 08:35:50 51°11.268 2°45.555 3.376 2.678047 28.559771 2.353725
2005-03-11 08:35:57 51°11.257 2°45.513 3.3815 2.6771 28.54945 2.320016
2005-03-11 08:36:01 51°11.249 2°45.486 3.3766 2.6771 28.54945 2.320016
2005-03-11 08:36:06 51°11.242 2°45.459 3.3807 2.67731 28.55507 2.286306
2005-03-11 08:36:11 51°11.233 2°45.426 3.3841 2.682886 28.619719 2.252597
2005-03-11 08:36:16 51°11.225 2°45.396 3.3786 2.67468 28.522635 2.185178
2005-03-11 08:36:22 51°11.217 2°45.363 3.382 2.68236 28.611966 2.252597
2005-03-11 08:36:26 51°11.21 2°45.338 3.3817 2.682991 28.617795 2.320016
2005-03-11 08:36:31 51°11.201 2°45.305 3.3869 2.682991 28.617795 2.320016
2005-03-11 08:36:36 51°11.193 2°45.275 3.3753 2.677942 28.559325 2.387435
2005-03-11 08:36:40 51°11.187 2°45.251 3.3803 2.682255 28.607573 2.454853
2005-03-11 08:36:46 51°11.178 2°45.218 3.3843 2.672787 28.495701 2.454853
2005-03-11 08:36:52 51°11.169 2°45.182 3.373 2.666054 28.417527 2.421144
2005-03-11 08:36:57 51°11.161 2°45.151 3.381 2.682781 28.612956 2.421144
2005-03-11 08:37:01 51°11.154 2°45.125 3.3722 2.682781 28.612956 2.421144
2005-03-11 08:37:06 51°11.146 2°45.093 3.3823 2.676679 28.538999 2.421144
2005-03-11 08:37:10 51°11.14 2°45.073 3.3864 2.681413 28.595329 2.387435
2005-03-11 08:37:17 51°11.13 2°45.03 3.3771 2.673313 28.501084 2.286306
2005-03-11 08:37:20 51°11.124 2°45.009 3.38 2.678467 28.560768 2.286306
2005-03-11 08:37:26 51°11.115 2°44.972 3.3751 2.678467 28.560768 2.286306
2005-03-11 08:37:32 51°11.106 2°44.939 3.381 2.672576 28.494019 2.387435
2005-03-11 08:37:36 51°11.099 2°44.912 3.4052 2.680677 28.591422 2.387435
2005-03-11 08:37:41 51°11.092 2°44.884 3.376 2.670578 28.473718 2.488563
2005-03-11 08:37:46 51°11.083 2°44.85 3.3793 2.68499 28.638884 2.589691
2005-03-11 08:37:50 51°11.077 2°44.826 3.378 2.664897 28.404742 2.65711
2005-03-11 08:37:56 51°11.068 2°44.79 3.3749 2.677731 28.556856 2.65711
2005-03-11 08:38:00 51°11.061 2°44.765 3.3712 2.677731 28.556856 2.65711
2005-03-11 08:38:06 51°11.052 2°44.727 3.369 2.678362 28.563474 2.555982
2005-03-11 08:38:11 51°11.045 2°44.697 3.3713 2.684885 28.635279 2.488563
2005-03-11 08:38:16 51°11.039 2°44.669 3.3753 2.683307 28.619919 2.454853
2005-03-11 08:38:20 51°11.033 2°44.641 3.3727 2.689198 28.689071 2.454853
2005-03-11 08:38:26 51°11.024 2°44.603 3.3699 2.689829 28.698857 2.488563
2005-03-11 08:38:31 51°11.019 2°44.575 3.3769 2.689829 28.698857 2.488563
2005-03-11 08:38:36 51°11.011 2°44.541 3.3705 2.693617 28.745708 2.421144
2005-03-11 08:38:41 51°11.006 2°44.512 3.367 2.672682 28.501545 2.421144
2005-03-11 08:38:46 51°10.998 2°44.478 3.3628 2.689409 28.698668 2.421144
2005-03-11 08:38:51 51°10.992 2°44.451 3.3698 2.69551 28.768743 2.454853
2005-03-11 08:38:56 51°10.984 2°44.417 3.3728 2.692985 28.739088 2.353725
2005-03-11 08:39:00 51°10.978 2°44.392 3.3628 2.692985 28.739088 2.353725
2005-03-11 08:39:06 51°10.97 2°44.354 3.371 2.683833 28.630833 2.421144
2005-03-11 08:39:10 51°10.965 2°44.333 3.3608 2.665318 28.416734 2.488563
2005-03-11 08:39:17 51°10.955 2°44.289 3.3593 2.690671 28.715871 2.488563
2005-03-11 08:39:21 51°10.948 2°44.261 3.3719 2.685411 28.655684 2.421144
2005-03-11 08:39:26 51°10.941 2°44.229 3.3663 2.685411 28.655684 2.421144
2005-03-11 08:39:31 51°10.935 2°44.199 3.3621 2.683307 28.63098 2.454853
2005-03-11 08:39:36 51°10.929 2°44.171 3.36 2.693301 28.749143 2.522272
2005-03-11 08:39:40 51°10.923 2°44.143 3.3603 2.696352 28.78419 2.555982
2005-03-11 08:39:45 51°10.915 2°44.112 3.36 2.683517 28.636613 2.724529
2005-03-11 08:39:50 51°10.909 2°44.084 3.356 2.691828 28.734222 2.926785
2005-03-11 08:39:56 51°10.9 2°44.047 3.364 2.693301 28.75073 2.859366
2005-03-11 08:40:01 51°10.893 2°44.015 3.3657 2.693301 28.75073 2.859366
2005-03-11 08:40:06 51°10.886 2°43.985 3.3643 2.690566 28.717807 2.825657
2005-03-11 08:40:11 51°10.879 2°43.95 3.3644 2.691302 28.728043 2.690819
2005-03-11 08:40:17 51°10.871 2°43.913 3.3616 2.696247 28.788517 2.724529
2005-03-11 08:40:20 51°10.866 2°43.895 3.3595 2.70056 28.840005 2.589691
2005-03-11 08:40:26 51°10.858 2°43.861 3.3671 2.693196 28.754258 2.555982
2005-03-11 08:40:31 51°10.851 2°43.83 3.3589 2.693196 28.754258 2.555982
2005-03-11 08:40:36 51°10.845 2°43.799 3.3623 2.688988 28.701649 2.522272
2005-03-11 08:40:42 51°10.837 2°43.762 3.3593 2.700245 28.834703 2.6234
2005-03-11 08:40:46 51°10.83 2°43.734 3.3577 2.697299 28.79929 2.488563
2005-03-11 08:40:51 51°10.824 2°43.703 3.3693 2.694564 28.76715 2.488563
2005-03-11 08:40:56 51°10.817 2°43.673 3.3617 2.694564 28.76715 2.488563
2005-03-11 08:41:02 51°10.809 2°43.639 3.355 2.67426 28.530297 2.589691
2005-03-11 08:41:06 51°10.802 2°43.611 3.3554 2.698877 28.818629 2.65711
2005-03-11 08:41:12 51°10.795 2°43.578 3.3586 2.69772 28.807416 2.859366
2005-03-11 08:41:16 51°10.789 2°43.55 3.3641 2.693827 28.76088 3.061623
2005-03-11 08:41:20 51°10.783 2°43.525 3.3488 2.662583 28.394845 3.23017
2005-03-11 08:41:26 51°10.775 2°43.488 3.3592 2.676153 28.551736 3.297589
2005-03-11 08:41:32 51°10.767 2°43.455 3.3511 2.676153 28.551736 3.297589
2005-03-11 08:41:36 51°10.761 2°43.427 3.359 2.698772 28.81978 3.331298
2005-03-11 08:41:41 51°10.754 2°43.396 3.367 2.704979 28.893541 3.466136
2005-03-11 08:41:46 51°10.748 2°43.368 3.3563 2.699613 28.831265 3.533554
2005-03-11 08:41:51 51°10.74 2°43.335 3.3598 2.69772 28.809007 3.76952
2005-03-11 08:41:56 51°10.734 2°43.304 3.357 2.702559 28.866689 3.76952
2005-03-11 08:42:00 51°10.728 2°43.28 3.3571 2.702559 28.866689 3.76952
2005-03-11 08:42:05 51°10.722 2°43.249 3.351 2.699298 28.828351 3.80323
2005-03-11 08:42:11 51°10.714 2°43.212 3.3545 2.693196 28.755846 3.971777
2005-03-11 08:42:16 51°10.707 2°43.181 3.3526 2.705926 28.904673 4.005486
2005-03-11 08:42:21 51°10.7 2°43.151 3.3563 2.689093 28.707641 4.241452
2005-03-11 08:42:26 51°10.694 2°43.123 3.3513 2.699929 28.834974 4.275161
2005-03-11 08:42:30 51°10.689 2°43.098 3.3506 2.699929 28.834974 4.275161
2005-03-11 08:42:36 51°10.681 2°43.062 3.351 2.709292 28.945858 4.477418
2005-03-11 08:42:42 51°10.673 2°43.025 3.355 2.706347 28.912815 4.477418
2005-03-11 08:42:46 51°10.666 2°42.997 3.3533 2.710134 28.958156 4.544836
2005-03-11 08:42:50 51°10.661 2°42.972 3.3499 2.690882 28.732619 4.645965
2005-03-11 08:42:56 51°10.653 2°42.936 3.3442 2.705189 28.900803 4.679674
2005-03-11 08:43:00 51°10.647 2°42.912 3.3421 2.705189 28.900803 4.679674
2005-03-11 08:43:05 51°10.64 2°42.881 3.3542 2.702664 28.87271 4.713383
2005-03-11 08:43:12 51°10.632 2°42.841 3.3541 2.698246 28.819965 4.848221
2005-03-11 08:43:16 51°10.626 2°42.817 3.3514 2.710555 28.965505 4.91564
2005-03-11 08:43:21 51°10.619 2°42.783 3.3503 2.707083 28.925469 4.88193
2005-03-11 08:43:26 51°10.613 2°42.755 3.3638 2.685621 28.673987 4.848221
2005-03-11 08:43:32 51°10.605 2°42.718 3.3488 2.685621 28.673987 4.848221
2005-03-11 08:43:37 51°10.598 2°42.687 3.3534 2.702454 28.875021 4.780802
2005-03-11 08:43:41 51°10.592 2°42.662 3.3568 2.712764 28.993898 4.713383
2005-03-11 08:43:46 51°10.585 2°42.632 3.3506 2.707294 28.926346 4.645965
2005-03-11 08:43:51 51°10.578 2°42.599 3.3539 2.712554 28.987418 4.443708
2005-03-11 08:43:56 51°10.571 2°42.568 3.3519 2.705084 28.898768 4.275161
2005-03-11 08:44:01 51°10.565 2°42.54 3.355 2.705084 28.898768 4.275161
2005-03-11 08:44:06 51°10.558 2°42.509 3.3546 2.709082 28.946581 4.106614
2005-03-11 08:44:10 51°10.553 2°42.485 3.3603 2.702033 28.865288 4.005486
2005-03-11 08:44:17 51°10.544 2°42.441 3.3643 2.71308 28.993606 3.938067
2005-03-11 08:44:21 51°10.538 2°42.414 3.3555 2.707083 28.923073 3.702101
2005-03-11 08:44:26 51°10.531 2°42.383 3.3549 2.711923 28.980793 3.499845
2005-03-11 08:44:30 51°10.527 2°42.362 3.3615 2.711923 28.980793 3.499845
2005-03-11 08:44:36 51°10.518 2°42.322 3.3612 2.712975 28.992369 3.499845
2005-03-11 08:44:41 51°10.512 2°42.294 3.3536 2.715184 29.015155 3.398717
2005-03-11 08:44:46 51°10.504 2°42.26 3.357 2.703716 28.878699 3.365007
2005-03-11 08:44:52 51°10.497 2°42.227 3.3584 2.708556 28.935599 3.23017
2005-03-11 08:44:56 51°10.491 2°42.199 3.3614 2.716236 29.028333 3.061623
2005-03-11 08:45:01 51°10.485 2°42.168 3.3641 2.716236 29.028333 3.061623
2005-03-11 08:45:06 51°10.478 2°42.137 3.3611 2.709713 28.952406 3.027913
2005-03-11 08:45:10 51°10.473 2°42.116 3.3575 2.704243 28.886478 2.994204
2005-03-11 08:45:16 51°10.464 2°42.076 3.3653 2.714132 29.00358 2.960494
2005-03-11 08:45:21 51°10.458 2°42.045 3.3602 2.714763 29.012608 2.926785
2005-03-11 08:45:26 51°10.451 2°42.014 3.3525 2.70561 28.902559 2.926785
2005-03-11 08:45:32 51°10.444 2°41.98 3.3568 2.70561 28.902559 2.926785
2005-03-11 08:45:36 51°10.438 2°41.953 3.3506 2.715395 29.016829 2.690819
2005-03-11 08:45:40 51°10.432 2°41.928 3.3553 2.707504 28.923229 2.65711
2005-03-11 08:45:46 51°10.424 2°41.891 3.3518 2.715289 29.015591 2.589691
2005-03-11 08:45:51 51°10.418 2°41.861 3.3574 2.704663 28.893022 2.555982
2005-03-11 08:45:56 51°10.411 2°41.829 3.3545 2.700666 28.848411 2.454853
2005-03-11 08:46:00 51°10.406 2°41.805 3.3522 2.700666 28.848411 2.454853
2005-03-11 08:46:07 51°10.397 2°41.762 3.3528 2.706768 28.919361 2.454853
2005-03-11 08:46:10 51°10.393 2°41.742 3.3579 2.711923 28.979993 2.454853
2005-03-11 08:46:16 51°10.386 2°41.706 3.3528 2.714658 29.012172 2.353725
2005-03-11 08:46:21 51°10.379 2°41.675 3.3614 2.714763 29.014211 2.454853
2005-03-11 08:46:26 51°10.373 2°41.647 3.3629 2.714763 29.014211 2.454853
2005-03-11 08:46:30 51°10.367 2°41.619 3.369 2.710765 28.96558 2.421144
2005-03-11 08:46:36 51°10.359 2°41.583 3.3747 2.71308 28.993606 2.555982
2005-03-11 08:46:40 51°10.353 2°41.558 3.3686 2.704348 28.890907 2.522272
2005-03-11 08:46:47 51°10.345 2°41.518 3.3647 2.708661 28.941632 2.488563
2005-03-11 08:46:52 51°10.338 2°41.488 3.3656 2.708872 28.942508 2.421144
2005-03-11 08:46:57 51°10.331 2°41.457 3.3603 2.711397 28.969804 2.421144
2005-03-11 08:47:01 51°10.325 2°41.429 3.3675 2.711397 28.969804 2.421144
2005-03-11 08:47:06 51°10.319 2°41.402 3.3657 2.716762 29.02891 2.387435
2005-03-11 08:47:11 51°10.312 2°41.367 3.3694 2.714868 29.004233 2.286306
2005-03-11 08:47:17 51°10.305 2°41.333 3.3618 2.717709 29.037642 2.286306
2005-03-11 08:47:21 51°10.299 2°41.306 3.3647 2.717499 29.035969 2.286306
2005-03-11 08:47:26 51°10.293 2°41.278 3.3645 2.719498 29.060285 2.353725
2005-03-11 08:47:31 51°10.286 2°41.244 3.3574 2.719498 29.060285 2.353725
2005-03-11 08:47:36 51°10.28 2°41.213 3.3587 2.716447 29.025197 2.286306
2005-03-11 08:47:42 51°10.273 2°41.179 3.3594 2.714448 29.000885 2.252597
2005-03-11 08:47:46 51°10.267 2°41.151 3.3578 2.71066 28.957145 2.252597
2005-03-11 08:47:51 51°10.26 2°41.12 3.3658 2.718025 29.043761 2.252597
2005-03-11 08:47:56 51°10.254 2°41.09 3.3696 2.71308 28.985601 2.320016
2005-03-11 08:48:01 51°10.248 2°41.058 3.3656 2.71308 28.985601 2.320016
2005-03-11 08:48:06 51°10.241 2°41.027 3.3659 2.711186 28.96413 2.387435
2005-03-11 08:48:11 51°10.235 2°40.996 3.3637 2.718551 29.051553 2.387435
2005-03-11 08:48:16 51°10.229 2°40.965 3.3567 2.717709 29.042454 2.320016
2005-03-11 08:48:21 51°10.223 2°40.934 3.364 2.720129 29.070922 2.454853
2005-03-11 08:48:26 51°10.216 2°40.903 3.3602 2.71308 28.986401 2.353725
2005-03-11 08:48:32 51°10.21 2°40.869 3.3642 2.71308 28.986401 2.353725
2005-03-11 08:48:36 51°10.204 2°40.842 3.3676 2.713501 28.988949 2.387435
2005-03-11 08:48:41 51°10.198 2°40.814 3.3654 2.712659 28.979051 2.387435
2005-03-11 08:48:46 51°10.191 2°40.78 3.3616 2.71813 29.044998 2.387435
2005-03-11 08:48:51 51°10.184 2°40.75 3.355 2.714553 29.005326 2.454853
2005-03-11 08:48:57 51°10.177 2°40.716 3.3562 2.725389 29.131214 2.421144
2005-03-11 08:49:02 51°10.171 2°40.686 3.3558 2.725389 29.131214 2.421144
2005-03-11 08:49:06 51°10.165 2°40.661 3.3556 2.704348 28.885322 2.589691
2005-03-11 08:49:11 51°10.159 2°40.63 3.3575 2.715921 29.01901 2.522272
2005-03-11 08:49:16 51°10.152 2°40.6 3.3507 2.717393 29.037939 2.825657
2005-03-11 08:49:20 51°10.146 2°40.572 3.3556 2.725705 29.138147 2.690819
2005-03-11 08:49:26 51°10.138 2°40.535 3.3576 2.725705 29.138147 2.690819
2005-03-11 08:49:32 51°10.131 2°40.502 3.3568 2.721707 29.093508 2.724529
2005-03-11 08:49:36 51°10.125 2°40.475 3.3587 2.722023 29.097222 2.724529
2005-03-11 08:49:40 51°10.12 2°40.45 3.3596 2.719708 29.070788 2.724529
2005-03-11 08:49:47 51°10.112 2°40.41 3.3598 2.722864 29.107931 2.758238
2005-03-11 08:49:50 51°10.108 2°40.388 3.3517 2.723285 29.112884 2.65711
2005-03-11 08:49:57 51°10.099 2°40.349 3.3567 2.722549 29.105021 2.6234
2005-03-11 08:50:01 51°10.093 2°40.325 3.3596 2.722549 29.105021 2.6234
2005-03-11 08:50:06 51°10.087 2°40.294 3.3538 2.729177 29.181432 2.555982
2005-03-11 08:50:12 51°10.079 2°40.258 3.3552 2.718866 29.061686 2.6234
2005-03-11 08:50:16 51°10.074 2°40.231 3.3593 2.726336 29.147187 2.6234
2005-03-11 08:50:21 51°10.068 2°40.203 3.3606 2.720971 29.082431 2.589691
2005-03-11 08:50:26 51°10.061 2°40.173 3.3531 2.72339 29.113319 2.758238
2005-03-11 08:50:30 51°10.056 2°40.148 3.3625 2.72339 29.113319 2.758238
2005-03-11 08:50:36 51°10.048 2°40.109 3.3572 2.712975 28.989166 2.758238
2005-03-11 08:50:40 51°10.043 2°40.084 3.3568 2.714132 29.004381 2.926785
2005-03-11 08:50:46 51°10.035 2°40.051 3.3543 2.72581 29.14341 2.893076
2005-03-11 08:50:52 51°10.028 2°40.014 3.3576 2.730124 29.193386 2.994204
2005-03-11 08:50:56 51°10.022 2°39.987 3.355 2.734122 29.240461 2.994204
2005-03-11 08:51:01 51°10.016 2°39.96 3.3586 2.734122 29.240461 2.994204
2005-03-11 08:51:06 51°10.01 2°39.929 3.3565 2.734753 29.24628 3.027913
2005-03-11 08:51:11 51°10.002 2°39.896 3.3589 2.735385 29.255329 3.129042
2005-03-11 08:51:17 51°9.995 2°39.862 3.3609 2.725495 29.139694 3.19646
2005-03-11 08:51:20 51°9.991 2°39.841 3.3539 2.734543 29.246225 3.263879
2005-03-11 08:51:26 51°9.984 2°39.808 3.3607 2.734543 29.246225 3.263879
2005-03-11 08:51:31 51°9.978 2°39.777 3.3535 2.729914 29.191715 3.263879
2005-03-11 08:51:36 51°9.971 2°39.744 3.3583 2.727915 29.166569 3.432426
2005-03-11 08:51:41 51°9.964 2°39.713 3.3582 2.722549 29.103413 3.432426
2005-03-11 08:51:46 51°9.959 2°39.686 3.3579 2.726231 29.145143 3.533554
2005-03-11 08:51:50 51°9.954 2°39.661 3.3581 2.711502 28.972642 3.600973
2005-03-11 08:51:57 51°9.945 2°39.618 3.3561 2.778945 29.768058 3.634683
2005-03-11 08:52:01 51°9.939 2°39.591 3.3592 2.778945 29.768058 3.634683
2005-03-11 08:52:06 51°9.934 2°39.563 3.3542 2.765792 29.613699 3.634683
2005-03-11 08:52:10 51°9.929 2°39.539 3.3533 2.768317 29.64103 3.735811
2005-03-11 08:52:16 51°9.921 2°39.499 3.3639 2.780523 29.785864 3.600973
2005-03-11 08:52:20 51°9.916 2°39.475 3.3647 2.773473 29.702671 3.702101
2005-03-11 08:52:26 51°9.908 2°39.437 3.3589 2.776209 29.735773 3.634683
2005-03-11 08:52:30 51°9.903 2°39.413 3.366 2.776209 29.735773 3.634683
2005-03-11 08:52:36 51°9.896 2°39.38 3.3722 2.771474 29.679085 3.533554
2005-03-11 08:52:40 51°9.89 2°39.353 3.3662 2.77926 29.771784 3.533554
2005-03-11 08:52:46 51°9.883 2°39.319 3.3641 2.78368 29.823124 3.600973
2005-03-11 08:52:51 51°9.876 2°39.285 3.3648 2.775472 29.723797 3.533554
2005-03-11 08:52:56 51°9.87 2°39.254 3.3675 2.775472 29.723797 3.533554
2005-03-11 08:53:01 51°9.864 2°39.227 3.3645 2.779892 29.775945 3.533554
2005-03-11 08:53:06 51°9.857 2°39.192 3.3655 2.784311 29.827281 3.533554
2005-03-11 08:53:11 51°9.851 2°39.162 3.3596 2.770737 29.66548 3.600973
2005-03-11 08:53:16 51°9.846 2°39.135 3.3607 2.78389 29.819843 3.533554
2005-03-11 08:53:21 51°9.839 2°39.101 3.3607 2.779471 29.768512 3.533554
2005-03-11 08:53:26 51°9.832 2°39.07 3.3643 2.778945 29.759838 3.466136
2005-03-11 08:53:31 51°9.826 2°39.04 3.3634 2.778945 29.759838 3.466136
2005-03-11 08:53:36 51°9.82 2°39.009 3.3628 2.770843 29.666721 3.398717
2005-03-11 08:53:41 51°9.814 2°38.982 3.3628 2.770527 29.663817 3.398717
2005-03-11 08:53:45 51°9.808 2°38.955 3.3682 2.782207 29.803266 3.263879
2005-03-11 08:53:50 51°9.803 2°38.927 3.3631 2.766213 29.616209 3.129042
2005-03-11 08:53:56 51°9.795 2°38.887 3.3607 2.782838 29.81154 3.061623
2005-03-11 08:54:01 51°9.789 2°38.856 3.3621 2.782838 29.81154 3.061623
2005-03-11 08:54:06 51°9.784 2°38.827 3.3624 2.777156 29.745305 2.994204
2005-03-11 08:54:11 51°9.778 2°38.796 3.364 2.753376 29.462424 3.162751
2005-03-11 08:54:16 51°9.772 2°38.766 3.3631 2.777787 29.749468 3.162751
2005-03-11 08:54:22 51°9.765 2°38.729 3.3643 2.779892 29.773478 3.23017
2005-03-11 08:54:26 51°9.76 2°38.703 3.3657 2.776104 29.731246 3.263879
2005-03-11 08:54:31 51°9.753 2°38.67 3.3653 2.776104 29.731246 3.263879
2005-03-11 08:54:36 51°9.747 2°38.639 3.3682 2.785679 29.843428 3.365007
2005-03-11 08:54:41 51°9.741 2°38.609 3.3704 2.777051 29.740777 3.297589
2005-03-11 08:54:47 51°9.734 2°38.575 3.3681 2.772316 29.685736 3.297589
2005-03-11 08:54:51 51°9.729 2°38.547 3.369 2.771263 29.672504 3.263879
2005-03-11 08:54:56 51°9.722 2°38.517 3.3672 2.771263 29.672504 3.263879
2005-03-11 08:55:01 51°9.716 2°38.487 3.3654 2.774736 29.711004 3.365007
2005-03-11 08:55:06 51°9.71 2°38.459 3.371 2.77663 29.734169 3.297589
2005-03-11 08:55:11 51°9.703 2°38.426 3.3727 2.779365 29.764804 3.331298
2005-03-11 08:55:16 51°9.697 2°38.395 3.3709 2.778524 29.754872 3.398717
2005-03-11 08:55:21 51°9.69 2°38.365 3.3688 2.778208 29.750326 3.466136
2005-03-11 08:55:26 51°9.685 2°38.338 3.372 2.778208 29.750326 3.466136
2005-03-11 08:55:31 51°9.678 2°38.304 3.3744 2.775157 29.714328 3.432426
2005-03-11 08:55:36 51°9.672 2°38.277 3.3715 2.783364 29.810341 3.432426
2005-03-11 08:55:41 51°9.665 2°38.243 3.3734 2.785468 29.834352 3.466136
2005-03-11 08:55:46 51°9.659 2°38.216 3.3738 2.776524 29.727181 3.466136
2005-03-11 08:55:51 51°9.652 2°38.182 3.3705 2.754744 29.472033 3.466136
2005-03-11 08:55:56 51°9.647 2°38.155 3.3701 2.778103 29.746621 3.297589
2005-03-11 08:56:01 51°9.64 2°38.121 3.3772 2.778103 29.746621 3.297589
2005-03-11 08:56:07 51°9.632 2°38.087 3.3733 2.779471 29.761115 3.331298
2005-03-11 08:56:10 51°9.627 2°38.066 3.3701 2.778839 29.753667 3.263879
2005-03-11 08:56:16 51°9.618 2°38.03 3.3759 2.78147 29.784701 3.297589
2005-03-11 08:56:20 51°9.612 2°38.006 3.3692 2.783153 29.803742 3.162751
2005-03-11 08:56:26 51°9.603 2°37.97 3.373 2.785258 29.831045 3.19646
2005-03-11 08:56:32 51°9.595 2°37.938 3.3697 2.785258 29.831045 3.19646
2005-03-11 08:56:36 51°9.588 2°37.91 3.3694 2.780523 29.775172 2.994204
2005-03-11 08:56:40 51°9.582 2°37.886 3.3792 2.783364 29.809517 2.994204
2005-03-11 08:56:47 51°9.572 2°37.847 3.3745 2.78873 29.872027 2.893076
2005-03-11 08:56:52 51°9.564 2°37.817 3.3842 2.774104 29.698636 2.859366
2005-03-11 08:56:56 51°9.558 2°37.79 3.3848 2.774104 29.698636 2.859366
2005-03-11 08:57:01 51°9.55 2°37.761 3.3871 2.783259 29.805807 2.893076
2005-03-11 08:57:06 51°9.543 2°37.734 3.3848 2.783995 29.816144 2.926785
2005-03-11 08:57:12 51°9.535 2°37.697 3.3846 2.787152 29.852574 2.893076
2005-03-11 08:57:16 51°9.529 2°37.673 3.3844 2.79115 29.898944 2.893076
2005-03-11 08:57:21 51°9.522 2°37.639 3.3847 2.785784 29.833135 2.960494
2005-03-11 08:57:27 51°9.514 2°37.605 3.3848 2.787994 29.855914 2.893076
2005-03-11 08:57:31 51°9.509 2°37.581 3.3908 2.787994 29.855914 2.893076
2005-03-11 08:57:37 51°9.502 2°37.543 3.393 2.783469 29.79924 2.893076
2005-03-11 08:57:41 51°9.497 2°37.516 3.3904 2.790729 29.884075 2.893076
2005-03-11 08:57:45 51°9.492 2°37.491 3.3901 2.771474 29.656969 2.926785
2005-03-11 08:57:51 51°9.484 2°37.454 3.3927 2.784837 29.813731 2.926785
2005-03-11 08:57:56 51°9.478 2°37.423 3.3938 2.789572 29.869593 2.859366
2005-03-11 08:58:01 51°9.472 2°37.392 3.3882 2.789572 29.869593 2.859366
2005-03-11 08:58:06 51°9.467 2°37.365 3.3875 2.79115 29.886567 2.926785
2005-03-11 08:58:12 51°9.46 2°37.327 3.3836 2.79336 29.908514 2.859366
2005-03-11 08:58:16 51°9.455 2°37.299 3.3821 2.792203 29.897333 2.859366
2005-03-11 08:58:21 51°9.449 2°37.268 3.3816 2.79094 29.882434 2.791947
2005-03-11 08:58:26 51°9.444 2°37.239 3.3839 2.785258 29.814582 2.791947
2005-03-11 08:58:31 51°9.438 2°37.204 3.3808 2.785258 29.814582 2.791947
2005-03-11 08:58:36 51°9.433 2°37.174 3.3735 2.782312 29.782299 2.724529
2005-03-11 08:58:41 51°9.427 2°37.146 3.3781 2.775683 29.70495 2.65711
2005-03-11 08:58:46 51°9.421 2°37.115 3.3813 2.773683 29.683018 2.6234
2005-03-11 08:58:51 51°9.415 2°37.081 3.3786 2.7841 29.805865 2.791947
2005-03-11 08:58:56 51°9.409 2°37.05 3.377 2.7841 29.805865 2.791947
2005-03-11 08:59:02 51°9.402 2°37.016 3.3734 2.789151 29.865451 2.65711
2005-03-11 08:59:07 51°9.396 2°36.985 3.3768 2.775156 29.702846 2.488563
2005-03-11 08:59:12 51°9.39 2°36.954 3.3791 2.783259 29.801693 2.488563
2005-03-11 08:59:16 51°9.385 2°36.927 3.381 2.776524 29.720617 2.454853
2005-03-11 08:59:21 51°9.379 2°36.896 3.3853 2.780207 29.765695 2.387435
2005-03-11 08:59:25 51°9.374 2°36.871 3.3792 2.768843 29.632504 2.353725
2005-03-11 08:59:31 51°9.368 2°36.837 3.3801 2.768843 29.632504 2.353725
2005-03-11 08:59:36 51°9.361 2°36.803 3.3785 2.77705 29.730104 2.353725
2005-03-11 08:59:41 51°9.356 2°36.774 3.3749 2.772105 29.6726 2.286306
2005-03-11 08:59:46 51°9.351 2°36.749 3.374 2.771579 29.665578 2.320016
2005-03-11 08:59:52 51°9.345 2°36.719 3.3702 2.761583 29.544479 2.286306
2005-03-11 08:59:56 51°9.34 2°36.697 3.3665 2.770211 29.646994 2.218888
2005-03-11 09:00:00 51°9.336 2°36.68 3.3651 2.770211 29.646994 2.218888
2005-03-11 09:00:06 51°9.332 2°36.656 3.3627 2.774209 29.693319 2.218888
2005-03-11 09:00:12 51°9.326 2°36.633 3.3615 2.773894 29.690416 2.185178
2005-03-11 09:00:17 51°9.322 2°36.615 3.3644 2.769895 29.647364 2.286306
2005-03-11 09:00:21 51°9.318 2°36.6 3.3621 2.771789 29.671336 2.117759
2005-03-11 09:00:26 51°9.313 2°36.586 3.3662 2.771789 29.671336 2.117759
2005-03-11 09:00:32 51°9.308 2°36.57 3.3616 2.770422 29.656843 2.08405
2005-03-11 09:00:36 51°9.303 2°36.558 3.3676 2.77179 29.676252 2.151469
2005-03-11 09:00:40 51°9.3 2°36.548 3.3634 2.772421 29.686157 2.117759
2005-03-11 09:00:46 51°9.294 2°36.536 3.3625 2.764635 29.595961 2.08405
2005-03-11 09:00:51 51°9.289 2°36.524 3.3605 2.769264 29.649743 2.08405
2005-03-11 09:00:56 51°9.285 2°36.515 3.3639 2.776735 29.737874 2.08405
2005-03-11 09:01:02 51°9.28 2°36.506 3.368 2.776735 29.737874 2.08405
2005-03-11 09:01:06 51°9.276 2°36.499 3.3617 2.774315 29.710141 2.050341
2005-03-11 09:01:11 51°9.271 2°36.492 3.3607 2.769896 29.657189 2.117759
2005-03-11 09:01:16 51°9.267 2°36.486 3.3642 2.767791 29.631551 2.016631
2005-03-11 09:01:22 51°9.263 2°36.48 3.3647 2.770843 29.668359 2.016631
2005-03-11 09:01:27 51°9.258 2°36.475 3.3682 2.770316 29.661334 2.08405
2005-03-11 09:01:31 51°9.255 2°36.472 3.3669 2.770316 29.661334 2.08405
2005-03-11 09:01:36 51°9.252 2°36.469 3.3639 2.763162 29.576957 2.08405
2005-03-11 09:01:41 51°9.249 2°36.466 3.3665 2.771053 29.671661 2.050341
2005-03-11 09:01:47 51°9.246 2°36.463 3.3664 2.757901 29.516566 2.050341
2005-03-11 09:01:51 51°9.243 2°36.461 3.3734 2.759163 29.529819 2.016631
2005-03-11 09:01:56 51°9.24 2°36.458 3.3695 2.767581 29.628251 1.915503
2005-03-11 09:02:00 51°9.238 2°36.456 3.3718 2.767581 29.628251 1.915503
2005-03-11 09:02:06 51°9.234 2°36.454 3.3724 2.758216 29.517026 1.949212
2005-03-11 09:02:10 51°9.232 2°36.453 3.3738 2.743696 29.345941 1.949212
2005-03-11 09:02:16 51°9.228 2°36.45 3.3722 2.747063 29.384789 1.949212
2005-03-11 09:02:21 51°9.225 2°36.448 3.3723 2.768633 29.639023 1.915503
2005-03-11 09:02:26 51°9.223 2°36.447 3.3804 2.768633 29.639023 1.915503
2005-03-11 09:02:32 51°9.219 2°36.444 3.3756 2.76474 29.590664 2.08405
2005-03-11 09:02:36 51°9.217 2°36.443 3.378 2.760636 29.540658 1.949212
2005-03-11 09:02:40 51°9.215 2°36.441 3.3785 2.758637 29.516281 2.016631
2005-03-11 09:02:45 51°9.213 2°36.44 3.3763 2.76979 29.646942 1.915503
2005-03-11 09:02:51 51°9.21 2°36.438 3.377 2.768107 29.627092 1.982922
2005-03-11 09:02:56 51°9.207 2°36.436 3.3803 2.770842 29.657712 1.915503
2005-03-11 09:03:01 51°9.205 2°36.435 3.3817 2.770842 29.657712 1.915503
2005-03-11 09:03:06 51°9.204 2°36.433 3.3852 2.763688 29.572544 1.881794
2005-03-11 09:03:12 51°9.201 2°36.431 3.3842 2.766739 29.606878 1.881794
2005-03-11 09:03:16 51°9.199 2°36.43 3.3846 2.759163 29.515962 1.915503
2005-03-11 09:03:21 51°9.197 2°36.428 3.3864 2.762635 29.556063 1.881794
2005-03-11 09:03:26 51°9.195 2°36.427 3.389 2.760952 29.537039 1.881794
2005-03-11 09:03:31 51°9.193 2°36.426 3.3871 2.760952 29.537039 1.881794
2005-03-11 09:03:36 51°9.191 2°36.424 3.3895 2.749062 29.395354 1.881794
2005-03-11 09:03:42 51°9.189 2°36.423 3.393 2.745695 29.353277 1.881794
2005-03-11 09:03:46 51°9.188 2°36.422 3.3864 2.742328 29.313642 1.746956
2005-03-11 09:03:50 51°9.186 2°36.421 3.391 2.751798 29.422699 1.780665
2005-03-11 09:03:56 51°9.184 2°36.419 3.3891 2.750746 29.409497 1.746956
2005-03-11 09:04:01 51°9.182 2°36.418 3.3926 2.750746 29.409497 1.746956
2005-03-11 09:04:06 51°9.181 2°36.417 3.3887 2.752955 29.435516 1.780665
2005-03-11 09:04:11 51°9.179 2°36.416 3.3892 2.754639 29.455342 1.746956
2005-03-11 09:04:16 51°9.177 2°36.415 3.3919 2.74801 29.374856 1.713247
2005-03-11 09:04:21 51°9.176 2°36.414 3.398 2.75022 29.400869 1.679537
2005-03-11 09:04:26 51°9.174 2°36.413 3.4006 2.724232 29.094298 1.713247
2005-03-11 09:04:31 51°9.173 2°36.412 3.3964 2.724232 29.094298 1.713247
2005-03-11 09:04:36 51°9.172 2°36.411 3.4001 2.749483 29.391387 1.713247
2005-03-11 09:04:41 51°9.171 2°36.41 3.3963 2.743801 29.323698 1.746956
2005-03-11 09:04:46 51°9.169 2°36.408 3.4033 2.724863 29.100917 1.679537
2005-03-11 09:04:52 51°9.168 2°36.408 3.3984 2.748852 29.382333 1.679537
2005-03-11 09:04:56 51°9.166 2°36.407 3.3973 2.745274 29.336179 1.645828
2005-03-11 09:05:00 51°9.165 2°36.406 3.3988 2.745274 29.336179 1.645828
2005-03-11 09:05:05 51°9.164 2°36.405 3.4005 2.741802 29.295323 1.679537
2005-03-11 09:05:11 51°9.163 2°36.404 3.3969 2.722338 29.066418 1.746956
2005-03-11 09:05:16 51°9.162 2°36.403 3.3961 2.73086 29.166613 1.645828
2005-03-11 09:05:21 51°9.16 2°36.402 3.4002 2.740961 29.284612 1.713247
2005-03-11 09:05:25 51°9.159 2°36.401 3.3991 2.739698 29.269758 1.746956
2005-03-11 09:05:31 51°9.158 2°36.4 3.3967 2.739698 29.269758 1.746956
2005-03-11 09:05:37 51°9.157 2°36.399 3.3937 2.745274 29.33537 1.612118
2005-03-11 09:05:42 51°9.156 2°36.399 3.3997 2.737488 29.242959 1.713247
2005-03-11 09:05:45 51°9.155 2°36.398 3.4012 2.737383 29.240915 1.713247
2005-03-11 09:05:52 51°9.154 2°36.397 3.4029 2.742749 29.304848 1.645828
2005-03-11 09:05:56 51°9.153 2°36.397 3.402 2.742749 29.304848 1.645828
2005-03-11 09:06:00 51°9.153 2°36.396 3.4006 2.742223 29.298658 1.645828
2005-03-11 09:06:06 51°9.151 2°36.395 3.3985 2.739067 29.262331 1.679537
2005-03-11 09:06:09 51°9.151 2°36.395 3.4045 2.743065 29.310987 1.612118
2005-03-11 09:06:16 51°9.15 2°36.394 3.3986 2.74296 29.307324 1.679537
2005-03-11 09:06:21 51°9.149 2°36.394 3.4101 2.739803 29.268573 1.612118
2005-03-11 09:06:24 51°9.148 2°36.393 3.4016 2.73591 29.221172 1.612118
2005-03-11 09:06:32 51°9.147 2°36.393 3.3983 2.73591 29.221172 1.612118
2005-03-11 09:06:36 51°9.146 2°36.393 3.4002 2.742434 29.297902 1.645828
2005-03-11 09:06:40 51°9.145 2°36.392 3.4006 2.740119 29.271479 1.578409
2005-03-11 09:06:46 51°9.144 2°36.392 3.4022 2.739277 29.260771 1.645828
2005-03-11 09:06:52 51°9.142 2°36.391 3.4021 2.742013 29.291335 1.679537
2005-03-11 09:06:56 51°9.141 2°36.39 3.4005 2.743801 29.311568 1.645828
2005-03-11 09:07:02 51°9.14 2°36.39 3.3998 2.743801 29.311568 1.645828
2005-03-11 09:07:06 51°9.139 2°36.389 3.4 2.733701 29.193578 1.612118
2005-03-11 09:07:11 51°9.137 2°36.389 3.3975 2.735069 29.211273 1.645828
2005-03-11 09:07:16 51°9.136 2°36.388 3.4042 2.743065 29.305328 1.645828
2005-03-11 09:07:20 51°9.135 2°36.388 3.3994 2.726336 29.110206 1.645828
2005-03-11 09:07:25 51°9.133 2°36.387 3.3985 2.742223 29.295426 1.578409
2005-03-11 09:07:31 51°9.131 2°36.387 3.3991 2.742223 29.295426 1.578409
2005-03-11 09:07:36 51°9.13 2°36.387 3.4001 2.740224 29.273524 1.645828
2005-03-11 09:07:41 51°9.128 2°36.387 3.404 2.742749 29.302423 1.645828
2005-03-11 09:07:46 51°9.126 2°36.386 3.4027 2.737804 29.244252 1.612118
2005-03-11 09:07:51 51°9.125 2°36.386 3.4013 2.742539 29.299139 1.679537
2005-03-11 09:07:56 51°9.123 2°36.385 3.401 2.742539 29.299139 1.679537
2005-03-11 09:08:02 51°9.121 2°36.385 3.4025 2.734542 29.205892 1.679537
2005-03-11 09:08:06 51°9.12 2°36.385 3.4018 2.732017 29.177003 1.645828
2005-03-11 09:08:11 51°9.118 2°36.384 3.4033 2.738435 29.250871 1.612118
2005-03-11 09:08:16 51°9.116 2°36.384 3.4095 2.741907 29.291713 1.612118
2005-03-11 09:08:21 51°9.114 2°36.384 3.4086 2.744538 29.322659 1.645828
2005-03-11 09:08:26 51°9.112 2°36.384 3.4076 2.743801 29.313993 1.612118
2005-03-11 09:08:32 51°9.11 2°36.383 3.4044 2.743801 29.313993 1.612118
2005-03-11 09:08:36 51°9.108 2°36.384 3.401 2.71066 28.924401 1.645828
2005-03-11 09:08:40 51°9.107 2°36.383 3.4067 2.741171 29.282241 1.645828
2005-03-11 09:08:46 51°9.105 2°36.383 3.409 2.726231 29.105758 1.645828
2005-03-11 09:08:51 51°9.102 2°36.383 3.4053 2.741066 29.277774 1.612118
2005-03-11 09:08:56 51°9.1 2°36.383 3.4095 2.74296 29.298434 1.645828
2005-03-11 09:09:02 51°9.099 2°36.383 3.4057 2.74296 29.298434 1.645828
2005-03-11 09:09:06 51°9.097 2°36.383 3.4018 2.734648 29.201492 1.679537
2005-03-11 09:09:12 51°9.095 2°36.383 3.4004 2.741592 29.285576 1.713247
2005-03-11 09:09:16 51°9.093 2°36.383 3.4072 2.735069 29.20644 1.645828
2005-03-11 09:09:22 51°9.09 2°36.383 3.4007 2.733175 29.182564 1.645828
2005-03-11 09:09:26 51°9.089 2°36.383 3.4056 2.733175 29.182564 1.645828
2005-03-11 09:09:30 51°9.088 2°36.383 3.4028 2.726231 29.102547 1.679537
2005-03-11 09:09:36 51°9.085 2°36.383 3.4074 2.744748 29.320283 1.713247
2005-03-11 09:09:40 51°9.083 2°36.383 3.4046 2.734227 29.196544 1.746956
2005-03-11 09:09:45 51°9.081 2°36.383 3.4026 2.742749 29.298383 1.713247
2005-03-11 09:09:49 51°9.08 2°36.383 3.4087 2.743486 29.307855 1.679537
2005-03-11 09:09:56 51°9.077 2°36.383 3.4064 2.733175 29.185783 1.679537
2005-03-11 09:10:02 51°9.075 2°36.383 3.4064 2.733175 29.185783 1.679537
2005-03-11 09:10:06 51°9.073 2°36.383 3.4135 2.741802 29.285629 1.679537
2005-03-11 09:10:11 51°9.071 2°36.383 3.4059 2.744643 29.318236 1.746956
2005-03-11 09:10:16 51°9.069 2°36.383 3.4039 2.732333 29.175082 1.713247
2005-03-11 09:10:21 51°9.067 2°36.383 3.4086 2.73591 29.217143 1.679537
2005-03-11 09:10:26 51°9.064 2°36.383 3.4044 2.735384 29.210957 1.713247
2005-03-11 09:10:31 51°9.062 2°36.383 3.4033 2.735384 29.210957 1.713247
2005-03-11 09:10:36 51°9.06 2°36.383 3.4067 2.736752 29.226235 1.645828
2005-03-11 09:10:40 51°9.059 2°36.383 3.4075 2.737488 29.233283 1.713247
2005-03-11 09:10:46 51°9.056 2°36.382 3.4037 2.739382 29.254747 1.578409
2005-03-11 09:10:52 51°9.054 2°36.382 3.4099 2.74054 29.269165 1.713247
2005-03-11 09:10:57 51°9.052 2°36.383 3.4062 2.714447 28.962502 1.713247
2005-03-11 09:11:01 51°9.05 2°36.383 3.4044 2.714447 28.962502 1.713247
2005-03-11 09:11:07 51°9.047 2°36.383 3.4 2.741487 29.283531 1.679537
2005-03-11 09:11:12 51°9.044 2°36.384 3.3979 2.741802 29.284821 1.645828
2005-03-11 09:11:16 51°9.042 2°36.385 3.4024 2.742433 29.292246 1.713247
2005-03-11 09:11:20 51°9.039 2°36.386 3.4017 2.745379 29.326092 1.746956
2005-03-11 09:11:26 51°9.036 2°36.389 3.3977 2.741066 29.276159 1.713247
2005-03-11 09:11:31 51°9.033 2°36.393 3.3969 2.741066 29.276159 1.713247
2005-03-11 09:11:36 51°9.03 2°36.396 3.3985 2.745695 29.332231 1.713247
2005-03-11 09:11:41 51°9.027 2°36.401 3.4013 2.736857 29.228278 1.746956
2005-03-11 09:11:46 51°9.025 2°36.405 3.3983 2.746011 29.339181 1.713247
2005-03-11 09:11:51 51°9.023 2°36.41 3.3968 2.744222 29.318945 1.746956
2005-03-11 09:11:56 51°9.022 2°36.416 3.3954 2.744222 29.319754 1.814375
2005-03-11 09:12:02 51°9.021 2°36.423 3.3946 2.744222 29.319754 1.814375
2005-03-11 09:12:06 51°9.021 2°36.428 3.3963 2.746537 29.348609 1.780665
2005-03-11 09:12:11 51°9.021 2°36.434 3.3967 2.747589 29.361801 1.746956
2005-03-11 09:12:16 51°9.022 2°36.44 3.3981 2.739488 29.265668 1.746956
2005-03-11 09:12:21 51°9.024 2°36.446 3.3986 2.745274 29.33537 1.746956
2005-03-11 09:12:26 51°9.026 2°36.45 3.3992 2.741276 29.289133 1.746956
2005-03-11 09:12:31 51°9.028 2°36.455 3.4013 2.741276 29.289133 1.746956
2005-03-11 09:12:36 51°9.032 2°36.459 3.4 2.746747 29.355134 1.814375
2005-03-11 09:12:42 51°9.036 2°36.463 3.4006 2.746537 29.353467 1.814375
2005-03-11 09:12:46 51°9.039 2°36.465 3.4008 2.738541 29.258564 1.780665
2005-03-11 09:12:52 51°9.044 2°36.467 3.3961 2.743696 29.320033 1.848084
2005-03-11 09:12:56 51°9.048 2°36.468 3.3979 2.735279 29.220195 1.848084
2005-03-11 09:13:00 51°9.051 2°36.468 3.3951 2.735279 29.220195 1.848084
2005-03-11 09:13:06 51°9.056 2°36.467 3.3985 2.731597 29.175273 1.881794
2005-03-11 09:13:12 51°9.062 2°36.465 3.3983 2.736436 29.233002 1.881794
2005-03-11 09:13:16 51°9.066 2°36.463 3.398 2.73328 29.195876 1.814375
2005-03-11 09:13:20 51°9.07 2°36.46 3.401 2.743486 29.316748 1.780665
2005-03-11 09:13:26 51°9.076 2°36.456 3.3954 2.729598 29.154179 1.881794
2005-03-11 09:13:31 51°9.081 2°36.452 3.3934 2.729598 29.154179 1.881794
2005-03-11 09:13:36 51°9.087 2°36.447 3.3982 2.745695 29.34356 1.915503
2005-03-11 09:13:40 51°9.091 2°36.444 3.3996 2.738646 29.261416 1.848084
2005-03-11 09:13:46 51°9.097 2°36.438 3.397 2.742644 29.309269 1.814375
2005-03-11 09:13:52 51°9.103 2°36.432 3.4035 2.741592 29.296079 1.915503
2005-03-11 09:13:56 51°9.109 2°36.427 3.4005 2.745064 29.33613 1.848084
2005-03-11 09:14:02 51°9.115 2°36.421 3.4046 2.745064 29.33613 1.848084
2005-03-11 09:14:06 51°9.121 2°36.416 3.4003 2.740329 29.281223 1.881794
2005-03-11 09:14:10 51°9.125 2°36.413 3.4088 2.744959 29.336511 1.881794
2005-03-11 09:14:16 51°9.133 2°36.406 3.4079 2.733385 29.197919 1.982922
2005-03-11 09:14:21 51°9.139 2°36.4 3.4026 2.744222 29.326224 1.848084
2005-03-11 09:14:26 51°9.145 2°36.393 3.396 2.746011 29.344037 1.915503
2005-03-11 09:14:31 51°9.151 2°36.387 3.3968 2.746011 29.344037 1.915503
2005-03-11 09:14:37 51°9.158 2°36.38 3.3976 2.744959 29.331655 1.982922
2005-03-11 09:14:42 51°9.165 2°36.373 3.4069 2.732228 29.182697 1.949212
2005-03-11 09:14:47 51°9.171 2°36.367 3.4048 2.74075 29.282136 1.915503
2005-03-11 09:14:51 51°9.177 2°36.361 3.4014 2.732017 29.179418 1.915503
2005-03-11 09:14:56 51°9.183 2°36.354 3.4009 2.732017 29.179418 1.915503
2005-03-11 09:15:02 51°9.19 2°36.346 3.399 2.735279 29.217777 1.915503
2005-03-11 09:15:06 51°9.195 2°36.34 3.3972 2.740224 29.278369 1.949212
2005-03-11 09:15:11 51°9.202 2°36.332 3.4025 2.748957 29.38033 1.982922
2005-03-11 09:15:16 51°9.209 2°36.325 3.3988 2.749799 29.389427 1.881794
2005-03-11 09:15:21 51°9.216 2°36.318 3.4009 2.744012 29.320512 1.881794
2005-03-11 09:15:26 51°9.222 2°36.311 3.3919 2.746853 29.354752 1.915503
2005-03-11 09:15:32 51°9.229 2°36.303 3.393 2.746853 29.354752 1.915503
2005-03-11 09:15:36 51°9.235 2°36.296 3.3904 2.738856 29.263892 1.848084
2005-03-11 09:15:41 51°9.241 2°36.289 3.3851 2.748536 29.376997 1.881794
2005-03-11 09:15:46 51°9.246 2°36.283 3.3884 2.750114 29.394764 1.949212
2005-03-11 09:15:51 51°9.252 2°36.276 3.3851 2.749588 29.387761 1.848084
2005-03-11 09:15:56 51°9.257 2°36.27 3.3862 2.747168 29.360087 1.881794
2005-03-11 09:16:01 51°9.262 2°36.263 3.3862 2.747168 29.360087 1.881794
2005-03-11 09:16:06 51°9.266 2°36.257 3.3899 2.755691 29.463669 1.915503
2005-03-11 09:16:12 51°9.27 2°36.251 3.3942 2.747905 29.372807 1.915503
2005-03-11 09:16:16 51°9.274 2°36.245 3.393 2.754428 29.453676 1.982922
2005-03-11 09:16:22 51°9.278 2°36.239 3.3897 2.76032 29.522267 1.949212
2005-03-11 09:16:26 51°9.28 2°36.235 3.3944 2.749483 29.396253 1.949212
2005-03-11 09:16:31 51°9.283 2°36.23 3.3889 2.749483 29.396253 1.949212